| time (UTC) | temp C | wind direction | speed KPH | gust KPH | rain 1hr cm | rain 24hr cm | rain mn cm | humidity % | barometer mb |
| 20260906221244 | 27 | 175 | 11.3 | 27.4 | 0.00 | 0.03 | 0.03 | 39 | 1017.5 |
| 20260906221140 | 27 | 155 | 11.3 | 27.4 | 0.00 | 0.03 | 0.03 | 39 | 1017.4 |
| 20260906221043 | 27 | 194 | 11.3 | 27.4 | 0.00 | 0.03 | 0.03 | 39 | 1017.5 |
| 20260906220843 | 27 | 207 | 12.9 | 27.4 | 0.00 | 0.03 | 0.03 | 39 | 1017.5 |
| 20260906220640 | 27 | 190 | 12.9 | 24.1 | 0.00 | 0.03 | 0.03 | 40 | 1017.5 |
| 20260906220443 | 27 | 62 | 12.9 | 24.1 | 0.00 | 0.03 | 0.03 | 41 | 1017.5 |
| 20260906220243 | 27 | 191 | 12.9 | 24.1 | 0.00 | 0.03 | 0.03 | 40 | 1017.5 |
| 20260906220140 | 27 | 193 | 12.9 | 24.1 | 0.00 | 0.03 | 0.03 | 40 | 1017.5 |
| 20260906220043 | 27 | 182 | 12.9 | 24.1 | 0.00 | 0.03 | 0.03 | 40 | 1017.5 |
| 20260906215844 | 27 | 194 | 12.9 | 24.1 | 0.00 | 0.03 | 0.03 | 40 | 1017.5 |
| 20260906215640 | 27 | 194 | 11.3 | 24.1 | 0.00 | 0.03 | 0.03 | 40 | 1017.5 |
| 20260906215443 | 27 | 196 | 11.3 | 19.3 | 0.00 | 0.03 | 0.03 | 39 | 1017.5 |
| 20260906215242 | 27 | 161 | 9.7 | 19.3 | 0.00 | 0.03 | 0.03 | 40 | 1017.6 |
| 20260906215140 | 27 | 160 | 9.7 | 17.7 | 0.00 | 0.03 | 0.03 | 39 | 1017.6 |
| 20260906215043 | 27 | 207 | 9.7 | 17.7 | 0.00 | 0.03 | 0.03 | 39 | 1017.6 |
| 20260906214842 | 27 | 178 | 11.3 | 19.3 | 0.00 | 0.03 | 0.03 | 38 | 1017.6 |
| 20260906214645 | 27 | 231 | 11.3 | 20.9 | 0.00 | 0.03 | 0.03 | 38 | 1017.7 |
| 20260906214641 | 27 | 207 | 11.3 | 20.9 | 0.00 | 0.03 | 0.03 | 38 | 1017.7 |
| 20260906214444 | 28 | 177 | 12.9 | 20.9 | 0.00 | 0.03 | 0.03 | 38 | 1017.7 |
| 20260906214244 | 28 | 82 | 14.5 | 25.7 | 0.00 | 0.03 | 0.03 | 38 | 1017.7 |
| 20260906214142 | 28 | 88 | 14.5 | 25.7 | 0.00 | 0.03 | 0.03 | 38 | 1017.8 |
| 20260906214047 | 27 | 119 | 16.1 | 25.7 | 0.00 | 0.03 | 0.03 | 38 | 1017.8 |
| 20260906213840 | 27 | 88 | 14.5 | 25.7 | 0.00 | 0.03 | 0.03 | 38 | 1017.8 |
| 20260906213640 | 28 | 105 | 12.9 | 25.7 | 0.00 | 0.03 | 0.03 | 38 | 1017.8 |
| 20260906213442 | 27 | 98 | 12.9 | 25.7 | 0.00 | 0.03 | 0.03 | 38 | 1017.8 |
| 20260906213241 | 27 | 87 | 11.3 | 24.1 | 0.00 | 0.03 | 0.03 | 38 | 1018.0 |
| 20260906213139 | 27 | 80 | 9.7 | 24.1 | 0.00 | 0.03 | 0.03 | 38 | 1018.0 |
| 20260906213039 | 27 | 92 | 9.7 | 24.1 | 0.00 | 0.03 | 0.03 | 38 | 1018.1 |
| 20260906212839 | 28 | 114 | 9.7 | 19.3 | 0.00 | 0.03 | 0.03 | 38 | 1018.1 |
| 20260906212642 | 28 | 113 | 11.3 | 20.9 | 0.00 | 0.03 | 0.03 | 38 | 1018.0 |
| 20260906212638 | 28 | 124 | 11.3 | 20.9 | 0.00 | 0.03 | 0.03 | 38 | 1018.0 |
| 20260906212438 | 28 | 109 | 9.7 | 22.5 | 0.00 | 0.03 | 0.03 | 38 | 1018.1 |
| 20260906212237 | 28 | 167 | 9.7 | 22.5 | 0.00 | 0.03 | 0.03 | 37 | 1018.1 |
| 20260906212137 | 28 | 100 | 9.7 | 22.5 | 0.00 | 0.03 | 0.03 | 37 | 1018.1 |
| 20260906212037 | 28 | 119 | 11.3 | 22.5 | 0.00 | 0.03 | 0.03 | 37 | 1018.1 |
| 20260906211837 | 28 | 61 | 9.7 | 22.5 | 0.00 | 0.03 | 0.03 | 37 | 1018.2 |
| 20260906211638 | 28 | 76 | 9.7 | 22.5 | 0.00 | 0.03 | 0.03 | 37 | 1018.1 |
| 20260906211438 | 28 | 90 | 9.7 | 22.5 | 0.00 | 0.03 | 0.03 | 36 | 1018.2 |
| 20260906211241 | 28 | 128 | 11.3 | 22.5 | 0.00 | 0.03 | 0.03 | 36 | 1018.3 |
| 20260906211135 | 28 | 94 | 11.3 | 33.8 | 0.00 | 0.03 | 0.03 | 36 | 1018.2 |
| 20260906211034 | 28 | 103 | 11.3 | 33.8 | 0.00 | 0.03 | 0.03 | 36 | 1018.2 |
| 20260906210833 | 28 | 89 | 11.3 | 33.8 | 0.00 | 0.03 | 0.03 | 36 | 1018.3 |
| 20260906210638 | 28 | 101 | 12.9 | 33.8 | 0.00 | 0.03 | 0.03 | 35 | 1018.4 |
| 20260906210634 | 28 | 109 | 12.9 | 33.8 | 0.00 | 0.03 | 0.03 | 35 | 1018.4 |
| 20260906210431 | 28 | 167 | 16.1 | 33.8 | 0.00 | 0.03 | 0.03 | 35 | 1018.3 |
| 20260906210230 | 28 | 157 | 19.3 | 40.2 | 0.00 | 0.03 | 0.03 | 35 | 1018.1 |
| 20260906210134 | 28 | 116 | 19.3 | 40.2 | 0.00 | 0.03 | 0.03 | 35 | 1018.2 |
| 20260906210032 | 28 | 168 | 20.9 | 40.2 | 0.00 | 0.03 | 0.03 | 35 | 1018.2 |
| 20260906205830 | 28 | 84 | 22.5 | 40.2 | 0.00 | 0.03 | 0.03 | 35 | 1018.2 |
| 20260906205639 | 29 | 85 | 19.3 | 30.6 | 0.00 | 0.03 | 0.03 | 32 | 1018.7 |
| 20260906205634 | 28 | 80 | 22.5 | 40.2 | 0.00 | 0.03 | 0.03 | 35 | 1018.3 |
| 20260906205628 | 28 | 84 | 22.5 | 40.2 | 0.00 | 0.03 | 0.03 | 35 | 1018.3 |
| 20260906205428 | 28 | 94 | 20.9 | 40.2 | 0.00 | 0.03 | 0.03 | 35 | 1018.2 |
| 20260906205252 | 28 | 71 | 19.3 | 35.4 | 0.00 | 0.03 | 0.03 | 34 | 1018.2 |
| 20260906205133 | 28 | 74 | 19.3 | 35.4 | 0.00 | 0.03 | 0.03 | 34 | 1018.4 |
| 20260906205028 | 28 | 107 | 17.7 | 35.4 | 0.00 | 0.03 | 0.03 | 34 | 1018.4 |
| 20260906204824 | 28 | 82 | 17.7 | 32.2 | 0.00 | 0.03 | 0.03 | 35 | 1018.3 |
| 20260906204631 | 28 | 81 | 17.7 | 29.0 | 0.00 | 0.03 | 0.03 | 34 | 1018.4 |
| 20260906204624 | 28 | 85 | 17.7 | 29.0 | 0.00 | 0.03 | 0.03 | 34 | 1018.4 |
| 20260906204426 | 29 | 69 | 19.3 | 29.0 | 0.00 | 0.03 | 0.03 | 33 | 1018.4 |
| 20260906204248 | 29 | 78 | 19.3 | 29.0 | 0.00 | 0.03 | 0.03 | 32 | 1018.6 |
| 20260906204128 | 29 | 69 | 19.3 | 30.6 | 0.00 | 0.03 | 0.03 | 32 | 1018.6 |
| 20260906204024 | 29 | 73 | 19.3 | 30.6 | 0.00 | 0.03 | 0.03 | 33 | 1018.6 |
| 20260906203822 | 29 | 72 | 17.7 | 30.6 | 0.00 | 0.03 | 0.03 | 33 | 1018.7 |
| 20260906203619 | 29 | 59 | 19.3 | 30.6 | 0.00 | 0.03 | 0.03 | 32 | 1018.7 |
| 20260906203417 | 29 | 78 | 19.3 | 30.6 | 0.00 | 0.03 | 0.03 | 33 | 1018.7 |
| 20260906203217 | 29 | 81 | 17.7 | 30.6 | 0.00 | 0.03 | 0.03 | 34 | 1018.7 |
| 20260906203128 | 29 | 107 | 16.1 | 27.4 | 0.00 | 0.03 | 0.03 | 34 | 1018.6 |
| 20260906203018 | 29 | 57 | 16.1 | 27.4 | 0.00 | 0.03 | 0.03 | 35 | 1018.7 |
| 20260906202816 | 29 | 63 | 16.1 | 27.4 | 0.00 | 0.03 | 0.03 | 35 | 1018.8 |
| 20260906202631 | 28 | 69 | 14.5 | 27.4 | 0.00 | 0.03 | 0.03 | 34 | 1018.8 |
| 20260906202627 | 29 | 77 | 14.5 | 27.4 | 0.00 | 0.03 | 0.03 | 34 | 1018.7 |
| 20260906202615 | 29 | 59 | 14.5 | 27.4 | 0.00 | 0.03 | 0.03 | 34 | 1018.7 |
| 20260906202415 | 28 | 64 | 12.9 | 25.7 | 0.00 | 0.03 | 0.03 | 34 | 1018.8 |
| 20260906202241 | 28 | 66 | 14.5 | 24.1 | 0.00 | 0.03 | 0.03 | 34 | 1018.8 |
| 20260906202013 | 28 | 66 | 14.5 | 27.4 | 0.00 | 0.03 | 0.03 | 33 | 1018.8 |
| 20260906201810 | 28 | 55 | 16.1 | 30.6 | 0.00 | 0.03 | 0.03 | 34 | 1018.9 |
| 20260906201627 | 28 | 62 | 16.1 | 30.6 | 0.00 | 0.03 | 0.03 | 34 | 1018.9 |
| 20260906201612 | 28 | 67 | 16.1 | 30.6 | 0.00 | 0.03 | 0.03 | 34 | 1018.9 |
| 20260906201412 | 29 | 43 | 16.1 | 30.6 | 0.00 | 0.03 | 0.03 | 34 | 1019.0 |
| 20260906201212 | 29 | 65 | 16.1 | 30.6 | 0.00 | 0.03 | 0.03 | 33 | 1019.2 |
| 20260906201127 | 29 | 80 | 16.1 | 30.6 | 0.00 | 0.03 | 0.03 | 34 | 1019.2 |
| 20260906201011 | 29 | 70 | 16.1 | 30.6 | 0.00 | 0.03 | 0.03 | 33 | 1019.2 |
| 20260906200810 | 29 | 113 | 14.5 | 27.4 | 0.00 | 0.03 | 0.03 | 33 | 1019.0 |
| 20260906200626 | 29 | 80 | 14.5 | 27.4 | 0.00 | 0.03 | 0.03 | 34 | 1019.2 |
| 20260906200611 | 29 | 74 | 14.5 | 27.4 | 0.00 | 0.03 | 0.03 | 34 | 1019.2 |
| 20260906200409 | 30 | 63 | 16.1 | 27.4 | 0.00 | 0.03 | 0.03 | 33 | 1019.2 |
| 20260906200208 | 30 | 81 | 16.1 | 27.4 | 0.00 | 0.03 | 0.03 | 32 | 1019.2 |
| 20260906200124 | 30 | 88 | 16.1 | 27.4 | 0.00 | 0.03 | 0.03 | 32 | 1019.2 |
| 20260906200008 | 30 | 90 | 16.1 | 27.4 | 0.00 | 0.03 | 0.03 | 31 | 1019.2 |
| 20260906195809 | 30 | 77 | 16.1 | 27.4 | 0.00 | 0.03 | 0.03 | 32 | 1019.2 |
| 20260906195631 | 30 | 103 | 17.7 | 30.6 | 0.00 | 0.03 | 0.03 | 31 | 1019.3 |
| 20260906195626 | 30 | 109 | 17.7 | 27.4 | 0.00 | 0.03 | 0.03 | 32 | 1019.2 |
| 20260906195609 | 30 | 80 | 17.7 | 27.4 | 0.00 | 0.03 | 0.03 | 32 | 1019.2 |
| 20260906195410 | 30 | 111 | 17.7 | 27.4 | 0.00 | 0.03 | 0.03 | 33 | 1019.3 |
| 20260906195239 | 30 | 105 | 17.7 | 30.6 | 0.00 | 0.03 | 0.03 | 31 | 1019.3 |
| 20260906195010 | 30 | 87 | 19.3 | 30.6 | 0.00 | 0.03 | 0.03 | 31 | 1019.3 |
| 20260906194808 | 30 | 105 | 19.3 | 30.6 | 0.00 | 0.03 | 0.03 | 35 | 1019.3 |
| 20260906194625 | 29 | 80 | 17.7 | 30.6 | 0.00 | 0.03 | 0.03 | 34 | 1019.3 |
| 20260906194608 | 29 | 91 | 17.7 | 30.6 | 0.00 | 0.03 | 0.03 | 33 | 1019.3 |
| 20260906194408 | 29 | 82 | 17.7 | 30.6 | 0.00 | 0.03 | 0.03 | 35 | 1019.3 |
| 20260906194208 | 29 | 54 | 16.1 | 27.4 | 0.00 | 0.03 | 0.03 | 35 | 1019.3 |
| 20260906194125 | 29 | 101 | 14.5 | 27.4 | 0.00 | 0.03 | 0.03 | 35 | 1019.3 |
| 20260906194009 | 29 | 80 | 14.5 | 27.4 | 0.00 | 0.03 | 0.03 | 35 | 1019.4 |
| 20260906193808 | 29 | 84 | 12.9 | 27.4 | 0.00 | 0.03 | 0.03 | 35 | 1019.4 |
| 20260906193629 | 29 | 63 | 9.7 | 22.5 | 0.00 | 0.03 | 0.03 | 34 | 1019.5 |
| 20260906193624 | 29 | 99 | 12.9 | 27.4 | 0.00 | 0.03 | 0.03 | 34 | 1019.4 |
| 20260906193609 | 29 | 88 | 12.9 | 25.7 | 0.00 | 0.03 | 0.03 | 34 | 1019.4 |
| 20260906193409 | 29 | 85 | 11.3 | 22.5 | 0.00 | 0.03 | 0.03 | 35 | 1019.5 |
| 20260906193237 | 29 | 73 | 11.3 | 22.5 | 0.00 | 0.03 | 0.03 | 35 | 1019.5 |
| 20260906193006 | 30 | 102 | 9.7 | 22.5 | 0.00 | 0.03 | 0.03 | 34 | 1019.5 |
| 20260906192802 | 30 | 113 | 9.7 | 22.5 | 0.00 | 0.03 | 0.03 | 35 | 1019.6 |
| 20260906192625 | 30 | 107 | 9.7 | 19.3 | 0.00 | 0.03 | 0.03 | 35 | 1019.6 |
| 20260906192602 | 30 | 113 | 9.7 | 19.3 | 0.00 | 0.03 | 0.03 | 35 | 1019.6 |
| 20260906192402 | 29 | 69 | 9.7 | 19.3 | 0.00 | 0.03 | 0.03 | 35 | 1019.5 |
| 20260906192204 | 29 | 72 | 11.3 | 25.7 | 0.00 | 0.03 | 0.03 | 34 | 1019.5 |
| 20260906192122 | 29 | 40 | 11.3 | 25.7 | 0.00 | 0.03 | 0.03 | 35 | 1019.6 |
| 20260906192002 | 29 | 65 | 12.9 | 25.7 | 0.00 | 0.03 | 0.03 | 35 | 1019.6 |
| 20260906191803 | 29 | 46 | 12.9 | 25.7 | 0.00 | 0.03 | 0.03 | 35 | 1019.6 |
| 20260906191622 | 29 | 80 | 12.9 | 25.7 | 0.00 | 0.03 | 0.03 | 34 | 1019.6 |
| 20260906191602 | 29 | 69 | 12.9 | 25.7 | 0.00 | 0.03 | 0.03 | 33 | 1019.6 |
| 20260906191400 | 29 | 51 | 12.9 | 25.7 | 0.00 | 0.03 | 0.03 | 32 | 1019.6 |
| 20260906191202 | 29 | 48 | 12.9 | 22.5 | 0.00 | 0.03 | 0.03 | 32 | 1019.8 |
| 20260906191122 | 29 | 55 | 11.3 | 22.5 | 0.00 | 0.03 | 0.03 | 32 | 1019.8 |
| 20260906190958 | 29 | 51 | 11.3 | 20.9 | 0.00 | 0.03 | 0.03 | 34 | 1019.8 |
| 20260906190759 | 29 | 88 | 9.7 | 20.9 | 0.00 | 0.03 | 0.03 | 33 | 1019.8 |
| 20260906190623 | 29 | 130 | 9.7 | 20.9 | 0.00 | 0.03 | 0.03 | 31 | 1019.8 |
| 20260906190558 | 29 | 91 | 9.7 | 20.9 | 0.00 | 0.03 | 0.03 | 32 | 1019.8 |
| 20260906190358 | 29 | 29 | 9.7 | 24.1 | 0.00 | 0.03 | 0.03 | 33 | 1019.8 |
| 20260906190158 | 30 | 76 | 9.7 | 24.1 | 0.00 | 0.03 | 0.03 | 33 | 1019.8 |
| 20260906190127 | 29 | 94 | 14.5 | 27.4 | 0.00 | 0.03 | 0.03 | 33 | 1020.0 |
| 20260906190122 | 30 | 104 | 11.3 | 24.1 | 0.00 | 0.03 | 0.03 | 32 | 1019.9 |
| 20260906190000 | 29 | 348 | 12.9 | 27.4 | 0.00 | 0.03 | 0.03 | 32 | 1019.9 |
| 20260906185758 | 29 | 36 | 14.5 | 27.4 | 0.00 | 0.03 | 0.03 | 32 | 1020.0 |
| 20260906185744 | 28 | 82 | 12.9 | 27.4 | 0.00 | 0.03 | 0.03 | 32 | 1020.1 |
| 20260906185557 | 29 | 131 | 14.5 | 27.4 | 0.00 | 0.03 | 0.03 | 33 | 1020.0 |
| 20260906185355 | 29 | 72 | 14.5 | 27.4 | 0.00 | 0.03 | 0.03 | 33 | 1020.3 |
| 20260906185234 | 28 | 72 | 12.9 | 27.4 | 0.00 | 0.03 | 0.03 | 33 | 1020.3 |
| 20260906184956 | 28 | 82 | 11.3 | 27.4 | 0.00 | 0.03 | 0.03 | 32 | 1020.1 |
| 20260906184754 | 28 | 61 | 9.7 | 19.3 | 0.00 | 0.03 | 0.03 | 32 | 1020.3 |
| 20260906184623 | 28 | 108 | 9.7 | 19.3 | 0.00 | 0.03 | 0.03 | 34 | 1020.3 |
| 20260906184556 | 28 | 74 | 9.7 | 19.3 | 0.00 | 0.03 | 0.03 | 34 | 1020.3 |
| 20260906184355 | 28 | 57 | 11.3 | 20.9 | 0.00 | 0.03 | 0.03 | 33 | 1020.3 |
| 20260906184153 | 28 | 47 | 12.9 | 24.1 | 0.00 | 0.03 | 0.03 | 35 | 1020.3 |
| 20260906184123 | 28 | 38 | 12.9 | 24.1 | 0.00 | 0.03 | 0.03 | 35 | 1020.4 |
| 20260906183953 | 28 | 109 | 12.9 | 24.1 | 0.00 | 0.03 | 0.03 | 35 | 1020.5 |
| 20260906183754 | 28 | 69 | 14.5 | 24.1 | 0.00 | 0.03 | 0.03 | 35 | 1020.5 |
| 20260906183619 | 28 | 129 | 16.1 | 24.1 | 0.00 | 0.03 | 0.03 | 38 | 1020.6 |
| 20260906183552 | 28 | 77 | 16.1 | 27.4 | 0.00 | 0.03 | 0.03 | 38 | 1020.6 |
| 20260906183352 | 27 | 75 | 14.5 | 27.4 | 0.00 | 0.03 | 0.03 | 37 | 1020.6 |
| 20260906183152 | 27 | 53 | 14.5 | 27.4 | 0.00 | 0.03 | 0.03 | 35 | 1020.6 |
| 20260906183122 | 27 | 63 | 14.5 | 27.4 | 0.00 | 0.03 | 0.03 | 35 | 1020.6 |
| 20260906182951 | 27 | 75 | 14.5 | 27.4 | 0.00 | 0.03 | 0.03 | 36 | 1020.6 |
| 20260906182752 | 28 | 112 | 12.9 | 27.4 | 0.00 | 0.03 | 0.03 | 35 | 1020.7 |
| 20260906182625 | 28 | 46 | 9.7 | 19.3 | 0.00 | 0.03 | 0.03 | 37 | 1020.9 |
| 20260906182620 | 28 | 64 | 11.3 | 27.4 | 0.00 | 0.03 | 0.03 | 36 | 1020.7 |
| 20260906182552 | 28 | 75 | 11.3 | 24.1 | 0.00 | 0.03 | 0.03 | 36 | 1020.7 |
| 20260906182351 | 28 | 57 | 11.3 | 24.1 | 0.00 | 0.03 | 0.03 | 36 | 1020.9 |
| 20260906182231 | 28 | 77 | 11.3 | 24.1 | 0.00 | 0.03 | 0.03 | 35 | 1020.9 |
| 20260906181950 | 28 | 51 | 9.7 | 17.7 | 0.00 | 0.03 | 0.03 | 36 | 1021.0 |
| 20260906181748 | 28 | 32 | 9.7 | 17.7 | 0.00 | 0.03 | 0.03 | 36 | 1021.0 |
| 20260906181625 | 27 | 122 | 8.0 | 16.1 | 0.00 | 0.03 | 0.03 | 37 | 1021.2 |
| 20260906181619 | 27 | 57 | 9.7 | 17.7 | 0.00 | 0.03 | 0.03 | 35 | 1021.0 |
| 20260906181550 | 27 | 49 | 9.7 | 17.7 | 0.00 | 0.03 | 0.03 | 35 | 1021.0 |
| 20260906181350 | 27 | 79 | 8.0 | 16.1 | 0.00 | 0.03 | 0.03 | 38 | 1021.1 |
| 20260906181231 | 27 | 83 | 8.0 | 16.1 | 0.00 | 0.03 | 0.03 | 37 | 1021.1 |
| 20260906180949 | 27 | 110 | 8.0 | 16.1 | 0.00 | 0.03 | 0.03 | 37 | 1021.2 |
| 20260906180747 | 27 | 57 | 6.4 | 16.1 | 0.00 | 0.03 | 0.03 | 38 | 1021.3 |
| 20260906180621 | 27 | 71 | 6.4 | 16.1 | 0.00 | 0.03 | 0.03 | 37 | 1021.3 |
| 20260906180546 | 27 | 80 | 6.4 | 16.1 | 0.00 | 0.03 | 0.03 | 37 | 1021.3 |
| 20260906180348 | 27 | 191 | 4.8 | 9.7 | 0.00 | 0.03 | 0.03 | 36 | 1021.3 |
| 20260906180148 | 27 | 161 | 4.8 | 11.3 | 0.00 | 0.03 | 0.03 | 36 | 1021.5 |
| 20260906180125 | 28 | 44 | 6.4 | 14.5 | 0.00 | 0.03 | 0.03 | 36 | 1021.5 |
| 20260906180121 | 27 | 165 | 4.8 | 11.3 | 0.00 | 0.03 | 0.03 | 36 | 1021.5 |
| 20260906175948 | 28 | 175 | 6.4 | 14.5 | 0.00 | 0.03 | 0.03 | 36 | 1021.5 |
| 20260906175748 | 28 | 101 | 6.4 | 14.5 | 0.00 | 0.03 | 0.03 | 36 | 1021.5 |
| 20260906175548 | 27 | 14 | 6.4 | 14.5 | 0.00 | 0.03 | 0.03 | 36 | 1021.6 |
| 20260906175345 | 27 | 53 | 6.4 | 14.5 | 0.00 | 0.03 | 0.03 | 37 | 1021.6 |
| 20260906175146 | 27 | 32 | 4.8 | 14.5 | 0.00 | 0.03 | 0.03 | 35 | 1021.7 |
| 20260906175121 | 28 | 86 | 4.8 | 14.5 | 0.00 | 0.03 | 0.03 | 35 | 1021.7 |
| 20260906174945 | 28 | 84 | 4.8 | 14.5 | 0.00 | 0.03 | 0.03 | 35 | 1021.7 |
| 20260906174744 | 28 | 102 | 4.8 | 14.5 | 0.00 | 0.03 | 0.03 | 35 | 1021.7 |
| 20260906174618 | 28 | 150 | 4.8 | 14.5 | 0.00 | 0.03 | 0.03 | 35 | 1021.8 |
| 20260906174544 | 28 | 68 | 4.8 | 14.5 | 0.00 | 0.03 | 0.03 | 34 | 1021.7 |
| 20260906174346 | 28 | 101 | 4.8 | 14.5 | 0.00 | 0.03 | 0.03 | 34 | 1021.9 |
| 20260906174146 | 28 | 118 | 6.4 | 14.5 | 0.00 | 0.03 | 0.03 | 34 | 1021.8 |
| 20260906174117 | 28 | 134 | 6.4 | 16.1 | 0.00 | 0.03 | 0.03 | 35 | 1021.8 |
| 20260906173945 | 28 | 104 | 4.8 | 16.1 | 0.00 | 0.03 | 0.03 | 35 | 1021.9 |
| 20260906173742 | 28 | 109 | 4.8 | 16.1 | 0.00 | 0.03 | 0.03 | 35 | 1021.9 |
| 20260906173619 | 28 | 355 | 4.8 | 16.1 | 0.00 | 0.03 | 0.03 | 35 | 1021.9 |
| 20260906173542 | 28 | 355 | 4.8 | 16.1 | 0.00 | 0.03 | 0.03 | 35 | 1022.1 |
| 20260906173344 | 27 | 174 | 4.8 | 16.1 | 0.00 | 0.03 | 0.03 | 34 | 1022.1 |
| 20260906173143 | 28 | 154 | 4.8 | 16.1 | 0.00 | 0.03 | 0.03 | 34 | 1022.1 |
| 20260906173118 | 28 | 194 | 4.8 | 9.7 | 0.00 | 0.03 | 0.03 | 34 | 1022.1 |
| 20260906172941 | 28 | 197 | 4.8 | 12.9 | 0.00 | 0.03 | 0.03 | 33 | 1022.1 |
| 20260906172741 | 28 | 211 | 4.8 | 12.9 | 0.00 | 0.03 | 0.03 | 33 | 1022.1 |
| 20260906172617 | 28 | 282 | 4.8 | 12.9 | 0.00 | 0.03 | 0.03 | 35 | 1022.1 |
| 20260906172540 | 27 | 268 | 4.8 | 12.9 | 0.00 | 0.03 | 0.03 | 35 | 1022.1 |
| 20260906172341 | 27 | 304 | 4.8 | 12.9 | 0.03 | 0.03 | 0.03 | 34 | 1022.2 |
| 20260906172141 | 27 | 288 | 4.8 | 12.9 | 0.03 | 0.03 | 0.03 | 33 | 1022.2 |
| 20260906172118 | 27 | 298 | 4.8 | 12.9 | 0.03 | 0.03 | 0.03 | 33 | 1022.2 |
| 20260906171939 | 27 | 272 | 3.2 | 12.9 | 0.03 | 0.03 | 0.03 | 36 | 1022.3 |
| 20260906171741 | 27 | 86 | 4.8 | 12.9 | 0.03 | 0.03 | 0.03 | 36 | 1022.3 |
| 20260906171618 | 27 | 175 | 3.2 | 12.9 | 0.03 | 0.03 | 0.03 | 36 | 1022.3 |
| 20260906171542 | 27 | 144 | 3.2 | 12.9 | 0.03 | 0.03 | 0.03 | 36 | 1022.3 |
| 20260906171339 | 27 | 214 | 4.8 | 9.7 | 0.03 | 0.03 | 0.03 | 35 | 1022.3 |
| 20260906171140 | 27 | 220 | 4.8 | 9.7 | 0.03 | 0.03 | 0.03 | 36 | 1022.3 |
| 20260906171119 | 27 | 88 | 4.8 | 9.7 | 0.03 | 0.03 | 0.03 | 35 | 1022.3 |
| 20260906170938 | 26 | 149 | 4.8 | 9.7 | 0.03 | 0.03 | 0.03 | 37 | 1022.4 |
| 20260906170739 | 26 | 197 | 3.2 | 9.7 | 0.03 | 0.03 | 0.03 | 36 | 1022.4 |
| 20260906170619 | 26 | 196 | 4.8 | 9.7 | 0.03 | 0.03 | 0.03 | 37 | 1022.4 |
| 20260906170538 | 26 | 190 | 4.8 | 12.9 | 0.03 | 0.03 | 0.03 | 37 | 1022.4 |
| 20260906170337 | 26 | 196 | 4.8 | 14.5 | 0.03 | 0.03 | 0.03 | 38 | 1022.4 |
| 20260906170137 | 26 | 318 | 4.8 | 14.5 | 0.03 | 0.03 | 0.03 | 36 | 1022.4 |
| 20260906170123 | 26 | 75 | 6.4 | 14.5 | 0.03 | 0.03 | 0.03 | 35 | 1022.5 |
| 20260906170119 | 26 | 329 | 4.8 | 14.5 | 0.03 | 0.03 | 0.03 | 36 | 1022.4 |
| 20260906165936 | 26 | 336 | 4.8 | 14.5 | 0.03 | 0.03 | 0.03 | 36 | 1022.4 |
| 20260906165738 | 26 | 117 | 6.4 | 14.5 | 0.03 | 0.03 | 0.03 | 37 | 1022.5 |
| 20260906165537 | 26 | 79 | 6.4 | 12.9 | 0.03 | 0.03 | 0.03 | 35 | 1022.5 |
| 20260906165336 | 26 | 63 | 6.4 | 12.9 | 0.03 | 0.03 | 0.03 | 37 | 1022.5 |
| 20260906165135 | 26 | 77 | 6.4 | 12.9 | 0.03 | 0.03 | 0.03 | 36 | 1022.5 |
| 20260906165116 | 26 | 75 | 6.4 | 12.9 | 0.03 | 0.03 | 0.03 | 36 | 1022.5 |
| 20260906164935 | 26 | 54 | 6.4 | 12.9 | 0.03 | 0.03 | 0.03 | 37 | 1022.5 |
| 20260906164734 | 26 | 72 | 6.4 | 12.9 | 0.03 | 0.03 | 0.03 | 37 | 1022.5 |
| 20260906164617 | 26 | 75 | 4.8 | 12.9 | 0.03 | 0.03 | 0.03 | 39 | 1022.5 |
| 20260906164534 | 26 | 101 | 4.8 | 12.9 | 0.03 | 0.03 | 0.03 | 38 | 1022.5 |
| 20260906164335 | 25 | 11 | 4.8 | 11.3 | 0.03 | 0.03 | 0.03 | 39 | 1022.5 |
| 20260906164134 | 25 | 355 | 4.8 | 11.3 | 0.03 | 0.03 | 0.03 | 39 | 1022.5 |
| 20260906164116 | 25 | 9 | 4.8 | 11.3 | 0.03 | 0.03 | 0.03 | 39 | 1022.5 |
| 20260906163935 | 25 | 9 | 6.4 | 14.5 | 0.03 | 0.03 | 0.03 | 39 | 1022.7 |
| 20260906163735 | 25 | 51 | 4.8 | 14.5 | 0.03 | 0.03 | 0.03 | 41 | 1022.7 |
| 20260906163617 | 25 | 35 | 6.4 | 14.5 | 0.03 | 0.03 | 0.03 | 42 | 1022.8 |
| 20260906163533 | 25 | 53 | 6.4 | 14.5 | 0.03 | 0.03 | 0.03 | 42 | 1022.8 |
| 20260906163331 | 25 | 19 | 6.4 | 14.5 | 0.03 | 0.03 | 0.03 | 41 | 1022.7 |
| 20260906163129 | 25 | 69 | 4.8 | 14.5 | 0.03 | 0.03 | 0.03 | 43 | 1022.8 |
| 20260906163119 | 25 | 48 | 4.8 | 14.5 | 0.03 | 0.03 | 0.03 | 43 | 1022.8 |
| 20260906163114 | 25 | 329 | 4.8 | 11.3 | 0.03 | 0.03 | 0.03 | 43 | 1022.8 |
| 20260906162928 | 25 | 344 | 4.8 | 12.9 | 0.03 | 0.03 | 0.03 | 42 | 1022.8 |
| 20260906162739 | 25 | 81 | 4.8 | 8.0 | 0.00 | 0.00 | 0.00 | 43 | 1022.8 |
| 20260906162734 | 25 | 296 | 4.8 | 11.3 | 0.03 | 0.03 | 0.03 | 41 | 1022.8 |
| 20260906162526 | 25 | 338 | 4.8 | 11.3 | 0.03 | 0.03 | 0.03 | 43 | 1022.8 |
| 20260906162327 | 25 | 59 | 4.8 | 11.3 | 0.00 | 0.00 | 0.03 | 42 | 1022.9 |
| 20260906162222 | 25 | 99 | 4.8 | 8.0 | 0.00 | 0.00 | 0.00 | 43 | 1022.8 |
| 20260906161924 | 25 | 72 | 4.8 | 9.7 | 0.00 | 0.00 | 0.00 | 41 | 1022.8 |
| 20260906161725 | 25 | 26 | 4.8 | 9.7 | 0.00 | 0.00 | 0.00 | 41 | 1022.8 |
| 20260906161615 | 25 | 51 | 4.8 | 9.7 | 0.00 | 0.00 | 0.00 | 41 | 1022.8 |
| 20260906161522 | 25 | 66 | 4.8 | 9.7 | 0.00 | 0.00 | 0.00 | 43 | 1022.8 |
| 20260906161323 | 25 | 19 | 4.8 | 9.7 | 0.00 | 0.00 | 0.00 | 43 | 1022.9 |
| 20260906161123 | 24 | 334 | 3.2 | 9.7 | 0.00 | 0.00 | 0.00 | 42 | 1022.9 |
| 20260906161114 | 24 | 342 | 3.2 | 9.7 | 0.00 | 0.00 | 0.00 | 42 | 1022.9 |
| 20260906160922 | 24 | 22 | 3.2 | 6.4 | 0.00 | 0.00 | 0.00 | 42 | 1022.9 |
| 20260906160720 | 25 | 50 | 3.2 | 4.8 | 0.00 | 0.00 | 0.00 | 43 | 1022.9 |
| 20260906160614 | 25 | 349 | 3.2 | 6.4 | 0.00 | 0.00 | 0.00 | 42 | 1022.9 |
| 20260906160520 | 25 | 355 | 3.2 | 6.4 | 0.00 | 0.00 | 0.00 | 42 | 1022.9 |
| 20260906160316 | 25 | 313 | 3.2 | 6.4 | 0.00 | 0.00 | 0.00 | 41 | 1022.9 |
| 20260906160123 | 25 | 350 | 3.2 | 6.4 | 0.00 | 0.00 | 0.00 | 43 | 1023.0 |
| 20260906160114 | 25 | 344 | 3.2 | 6.4 | 0.00 | 0.00 | 0.00 | 42 | 1022.9 |
| 20260906155912 | 25 | 0 | 4.8 | 6.4 | 0.00 | 0.00 | 0.00 | 43 | 1022.9 |
| 20260906155745 | 23 | 0 | 3.2 | 6.4 | 0.00 | 0.00 | 0.00 | 45 | 1022.8 |
| 20260906155734 | 25 | 19 | 3.2 | 6.4 | 0.00 | 0.00 | 0.00 | 44 | 1022.9 |
| 20260906155512 | 24 | 324 | 3.2 | 6.4 | 0.00 | 0.00 | 0.00 | 44 | 1022.9 |
| 20260906155312 | 24 | 336 | 3.2 | 6.4 | 0.00 | 0.00 | 0.00 | 45 | 1022.9 |
| 20260906155115 | 24 | 302 | 3.2 | 6.4 | 0.00 | 0.00 | 0.00 | 45 | 1022.8 |
| 20260906155109 | 24 | 300 | 3.2 | 6.4 | 0.00 | 0.00 | 0.00 | 45 | 1022.8 |
| 20260906154916 | 23 | 338 | 3.2 | 6.4 | 0.00 | 0.00 | 0.00 | 44 | 1022.9 |
| 20260906154733 | 22 | 355 | 1.6 | 4.8 | 0.00 | 0.00 | 0.00 | 46 | 1022.7 |
| 20260906154727 | 23 | 341 | 3.2 | 6.4 | 0.00 | 0.00 | 0.00 | 44 | 1022.8 |
| 20260906154513 | 23 | 340 | 3.2 | 6.4 | 0.00 | 0.00 | 0.00 | 45 | 1022.8 |
| 20260906154313 | 23 | 355 | 3.2 | 6.4 | 0.00 | 0.00 | 0.00 | 45 | 1022.8 |
| 20260906154111 | 23 | 48 | 3.2 | 6.4 | 0.00 | 0.00 | 0.00 | 45 | 1022.7 |
| 20260906153911 | 22 | 5 | 1.6 | 4.8 | 0.00 | 0.00 | 0.00 | 47 | 1022.7 |
| 20260906153727 | 22 | 307 | 1.6 | 4.8 | 0.00 | 0.00 | 0.00 | 46 | 1022.7 |
| 20260906153511 | 22 | 309 | 1.6 | 4.8 | 0.00 | 0.00 | 0.00 | 47 | 1022.7 |
| 20260906153310 | 22 | 186 | 1.6 | 4.8 | 0.00 | 0.00 | 0.00 | 48 | 1022.8 |
| 20260906153110 | 22 | 327 | 1.6 | 4.8 | 0.00 | 0.00 | 0.00 | 48 | 1022.8 |
| 20260906152910 | 22 | 327 | 1.6 | 4.8 | 0.00 | 0.00 | 0.00 | 48 | 1022.8 |
| 20260906152707 | 21 | 329 | 3.2 | 4.8 | 0.00 | 0.00 | 0.00 | 48 | 1022.8 |
| 20260906152607 | 21 | 329 | 3.2 | 6.4 | 0.00 | 0.00 | 0.00 | 48 | 1022.8 |
| 20260906152504 | 21 | 343 | 3.2 | 6.4 | 0.00 | 0.00 | 0.00 | 48 | 1022.8 |
| 20260906152307 | 21 | 322 | 3.2 | 6.4 | 0.00 | 0.00 | 0.00 | 49 | 1022.8 |
| 20260906152105 | 21 | 328 | 3.2 | 6.4 | 0.00 | 0.00 | 0.00 | 48 | 1022.8 |
| 20260906151904 | 21 | 304 | 3.2 | 6.4 | 0.00 | 0.00 | 0.00 | 47 | 1022.8 |
| 20260906151703 | 22 | 322 | 3.2 | 6.4 | 0.00 | 0.00 | 0.00 | 49 | 1022.7 |
| 20260906151613 | 22 | 355 | 1.6 | 4.8 | 0.00 | 0.00 | 0.00 | 49 | 1022.8 |
| 20260906151608 | 22 | 346 | 3.2 | 4.8 | 0.00 | 0.00 | 0.00 | 48 | 1022.8 |
| 20260906151501 | 22 | 9 | 1.6 | 4.8 | 0.00 | 0.00 | 0.00 | 48 | 1022.8 |
| 20260906151301 | 22 | 355 | 1.6 | 4.8 | 0.00 | 0.00 | 0.00 | 49 | 1022.8 |
| 20260906151101 | 22 | 350 | 1.6 | 4.8 | 0.00 | 0.00 | 0.00 | 49 | 1022.8 |
| 20260906150900 | 22 | 5 | 1.6 | 4.8 | 0.00 | 0.00 | 0.00 | 49 | 1022.9 |
| 20260906150659 | 22 | 0 | 1.6 | 4.8 | 0.00 | 0.00 | 0.00 | 49 | 1022.9 |
| 20260906150609 | 22 | 0 | 1.6 | 4.8 | 0.00 | 0.00 | 0.00 | 49 | 1022.9 |
| 20260906150458 | 22 | 277 | 1.6 | 4.8 | 0.00 | 0.00 | 0.00 | 50 | 1022.9 |
| 20260906150256 | 21 | 281 | 1.6 | 4.8 | 0.00 | 0.00 | 0.00 | 50 | 1022.9 |
| 20260906150108 | 21 | 284 | 1.6 | 4.8 | 0.00 | 0.00 | 0.00 | 51 | 1022.9 |
| 20260906150056 | 21 | 270 | 1.6 | 4.8 | 0.00 | 0.00 | 0.00 | 51 | 1022.9 |
| 20260906145855 | 20 | 5 | 1.6 | 4.8 | 0.00 | 0.00 | 0.00 | 54 | 1022.9 |
| 20260906145655 | 20 | 5 | 1.6 | 4.8 | 0.00 | 0.00 | 0.00 | 54 | 1022.9 |
| 20260906145609 | 20 | 5 | 1.6 | 4.8 | 0.00 | 0.00 | 0.00 | 55 | 1023.0 |
| 20260906145453 | 20 | 5 | 1.6 | 4.8 | 0.00 | 0.00 | 0.00 | 55 | 1023.0 |
| 20260906145251 | 20 | 5 | 1.6 | 4.8 | 0.00 | 0.00 | 0.00 | 56 | 1022.9 |
| 20260906145107 | 20 | 18 | 1.6 | 4.8 | 0.00 | 0.00 | 0.00 | 57 | 1022.9 |
| 20260906145048 | 20 | 18 | 1.6 | 4.8 | 0.00 | 0.00 | 0.00 | 57 | 1022.9 |
| 20260906144849 | 20 | 28 | 3.2 | 4.8 | 0.00 | 0.00 | 0.00 | 56 | 1022.9 |
| 20260906144648 | 20 | 40 | 1.6 | 4.8 | 0.00 | 0.00 | 0.00 | 55 | 1022.9 |
| 20260906144605 | 20 | 55 | 1.6 | 4.8 | 0.00 | 0.00 | 0.00 | 58 | 1022.9 |
| 20260906144448 | 19 | 57 | 3.2 | 6.4 | 0.00 | 0.00 | 0.00 | 58 | 1022.8 |
| 20260906144248 | 19 | 57 | 3.2 | 6.4 | 0.00 | 0.00 | 0.00 | 58 | 1022.8 |
| 20260906144104 | 19 | 0 | 3.2 | 6.4 | 0.00 | 0.00 | 0.00 | 57 | 1022.9 |
| 20260906144047 | 19 | 0 | 3.2 | 6.4 | 0.00 | 0.00 | 0.00 | 57 | 1022.9 |
| 20260906143848 | 19 | 27 | 3.2 | 6.4 | 0.00 | 0.00 | 0.00 | 57 | 1022.9 |
| 20260906143647 | 19 | 25 | 3.2 | 6.4 | 0.00 | 0.00 | 0.00 | 57 | 1022.9 |
| 20260906143603 | 19 | 39 | 3.2 | 6.4 | 0.00 | 0.00 | 0.00 | 57 | 1022.9 |
| 20260906143448 | 19 | 5 | 3.2 | 8.0 | 0.00 | 0.00 | 0.00 | 58 | 1022.8 |
| 20260906143247 | 19 | 0 | 3.2 | 8.0 | 0.00 | 0.00 | 0.00 | 59 | 1022.8 |
| 20260906143104 | 19 | 19 | 3.2 | 8.0 | 0.00 | 0.00 | 0.00 | 61 | 1022.8 |
| 20260906143048 | 19 | 19 | 3.2 | 8.0 | 0.00 | 0.00 | 0.00 | 61 | 1022.8 |
| 20260906142848 | 19 | 27 | 3.2 | 8.0 | 0.00 | 0.00 | 0.00 | 62 | 1022.9 |
| 20260906142647 | 19 | 23 | 3.2 | 8.0 | 0.00 | 0.00 | 0.00 | 65 | 1022.9 |
| 20260906142604 | 18 | 5 | 3.2 | 8.0 | 0.00 | 0.00 | 0.00 | 65 | 1022.9 |
| 20260906142448 | 18 | 34 | 3.2 | 6.4 | 0.00 | 0.00 | 0.00 | 66 | 1022.9 |
| 20260906142248 | 18 | 344 | 3.2 | 6.4 | 0.00 | 0.00 | 0.00 | 66 | 1022.9 |
| 20260906142108 | 18 | 31 | 3.2 | 6.4 | 0.00 | 0.00 | 0.00 | 69 | 1023.0 |
| 20260906142103 | 18 | 50 | 3.2 | 6.4 | 0.00 | 0.00 | 0.00 | 68 | 1022.9 |
| 20260906142048 | 18 | 39 | 3.2 | 6.4 | 0.00 | 0.00 | 0.00 | 68 | 1022.9 |
| 20260906141849 | 18 | 9 | 3.2 | 6.4 | 0.00 | 0.00 | 0.00 | 69 | 1022.9 |
| 20260906141717 | 18 | 31 | 3.2 | 6.4 | 0.00 | 0.00 | 0.00 | 69 | 1023.0 |
| 20260906141447 | 18 | 46 | 3.2 | 6.4 | 0.00 | 0.00 | 0.00 | 72 | 1023.0 |
| 20260906141249 | 18 | 67 | 3.2 | 6.4 | 0.00 | 0.00 | 0.00 | 73 | 1023.0 |
| 20260906141104 | 18 | 78 | 3.2 | 6.4 | 0.00 | 0.00 | 0.00 | 74 | 1023.0 |
| 20260906141048 | 18 | 67 | 3.2 | 6.4 | 0.00 | 0.00 | 0.00 | 74 | 1023.0 |
| 20260906140848 | 18 | 45 | 3.2 | 4.8 | 0.00 | 0.00 | 0.00 | 74 | 1023.0 |
| 20260906140648 | 18 | 33 | 3.2 | 4.8 | 0.00 | 0.00 | 0.00 | 74 | 1023.0 |
| 20260906140605 | 18 | 36 | 3.2 | 4.8 | 0.00 | 0.00 | 0.00 | 74 | 1023.0 |
| 20260906140448 | 17 | 51 | 3.2 | 4.8 | 0.00 | 0.00 | 0.00 | 74 | 1022.9 |
| 20260906140248 | 17 | 41 | 1.6 | 4.8 | 0.00 | 0.00 | 0.00 | 74 | 1022.9 |
| 20260906140105 | 17 | 67 | 1.6 | 4.8 | 0.00 | 0.00 | 0.00 | 74 | 1022.9 |
| 20260906140048 | 17 | 61 | 1.6 | 4.8 | 0.00 | 0.00 | 0.00 | 74 | 1022.9 |
| 20260906135846 | 17 | 42 | 1.6 | 3.2 | 0.00 | 0.00 | 0.00 | 75 | 1022.9 |
| 20260906135647 | 17 | 277 | 1.6 | 3.2 | 0.00 | 0.00 | 0.00 | 75 | 1022.9 |
| 20260906135602 | 17 | 277 | 1.6 | 3.2 | 0.00 | 0.00 | 0.00 | 75 | 1022.9 |
| 20260906135447 | 17 | 277 | 1.6 | 3.2 | 0.00 | 0.00 | 0.00 | 75 | 1022.9 |
| 20260906135246 | 17 | 277 | 1.6 | 4.8 | 0.00 | 0.00 | 0.00 | 75 | 1022.9 |
| 20260906135102 | 17 | 277 | 1.6 | 4.8 | 0.00 | 0.00 | 0.00 | 75 | 1022.9 |
| 20260906135047 | 17 | 277 | 1.6 | 4.8 | 0.00 | 0.00 | 0.00 | 75 | 1022.9 |
| 20260906134846 | 17 | 277 | 3.2 | 4.8 | 0.00 | 0.00 | 0.00 | 76 | 1022.9 |
| 20260906134722 | 17 | 312 | 3.2 | 3.2 | 0.00 | 0.00 | 0.00 | 77 | 1022.7 |
| 20260906134646 | 17 | 277 | 3.2 | 4.8 | 0.00 | 0.00 | 0.00 | 76 | 1022.8 |
| 20260906134607 | 17 | 312 | 3.2 | 4.8 | 0.00 | 0.00 | 0.00 | 76 | 1022.7 |
| 20260906134603 | 17 | 277 | 3.2 | 4.8 | 0.00 | 0.00 | 0.00 | 76 | 1022.8 |
| 20260906134447 | 17 | 277 | 3.2 | 4.8 | 0.00 | 0.00 | 0.00 | 76 | 1022.8 |
| 20260906134331 | 17 | 281 | 3.2 | 4.8 | 0.00 | 0.00 | 0.00 | 76 | 1022.7 |
| 20260906134047 | 17 | 312 | 3.2 | 4.8 | 0.00 | 0.00 | 0.00 | 76 | 1022.7 |
| 20260906133846 | 17 | 312 | 3.2 | 3.2 | 0.00 | 0.00 | 0.00 | 77 | 1022.7 |
| 20260906133714 | 17 | 312 | 3.2 | 3.2 | 0.00 | 0.00 | 0.00 | 77 | 1022.7 |
| 20260906133445 | 17 | 312 | 3.2 | 3.2 | 0.00 | 0.00 | 0.00 | 77 | 1022.5 |
| 20260906133246 | 17 | 312 | 3.2 | 3.2 | 0.00 | 0.00 | 0.00 | 78 | 1022.5 |
| 20260906133103 | 16 | 321 | 1.6 | 3.2 | 0.00 | 0.00 | 0.00 | 78 | 1022.5 |
| 20260906133046 | 16 | 324 | 1.6 | 3.2 | 0.00 | 0.00 | 0.00 | 78 | 1022.5 |
| 20260906132847 | 16 | 343 | 1.6 | 3.2 | 0.00 | 0.00 | 0.00 | 79 | 1022.5 |
| 20260906132645 | 16 | 10 | 1.6 | 3.2 | 0.00 | 0.00 | 0.00 | 79 | 1022.5 |
| 20260906132602 | 16 | 10 | 1.6 | 3.2 | 0.00 | 0.00 | 0.00 | 79 | 1022.5 |
| 20260906132446 | 16 | 21 | 1.6 | 3.2 | 0.00 | 0.00 | 0.00 | 80 | 1022.4 |
| 20260906132247 | 16 | 21 | 1.6 | 4.8 | 0.00 | 0.00 | 0.00 | 79 | 1022.4 |
| 20260906132102 | 16 | 21 | 3.2 | 4.8 | 0.00 | 0.00 | 0.00 | 80 | 1022.4 |
| 20260906132046 | 16 | 21 | 3.2 | 4.8 | 0.00 | 0.00 | 0.00 | 80 | 1022.4 |
| 20260906131847 | 16 | 21 | 3.2 | 4.8 | 0.00 | 0.00 | 0.00 | 80 | 1022.4 |
| 20260906131645 | 16 | 21 | 3.2 | 4.8 | 0.00 | 0.00 | 0.00 | 80 | 1022.4 |
| 20260906131607 | 16 | 39 | 3.2 | 4.8 | 0.00 | 0.00 | 0.00 | 78 | 1022.4 |
| 20260906131602 | 16 | 19 | 3.2 | 4.8 | 0.00 | 0.00 | 0.00 | 80 | 1022.4 |
| 20260906131446 | 16 | 25 | 3.2 | 4.8 | 0.00 | 0.00 | 0.00 | 80 | 1022.4 |
| 20260906131247 | 16 | 29 | 3.2 | 4.8 | 0.00 | 0.00 | 0.00 | 79 | 1022.4 |
| 20260906131220 | 16 | 53 | 3.2 | 4.8 | 0.00 | 0.00 | 0.00 | 69 | 1022.4 |
| 20260906131047 | 16 | 39 | 3.2 | 4.8 | 0.00 | 0.00 | 0.00 | 77 | 1022.4 |
| 20260906130847 | 16 | 33 | 3.2 | 4.8 | 0.00 | 0.00 | 0.00 | 74 | 1022.4 |
| 20260906130713 | 16 | 32 | 3.2 | 4.8 | 0.00 | 0.00 | 0.00 | 69 | 1022.4 |
| 20260906130447 | 16 | 59 | 3.2 | 4.8 | 0.00 | 0.00 | 0.00 | 68 | 1022.4 |
| 20260906130247 | 16 | 59 | 3.2 | 4.8 | 0.00 | 0.00 | 0.00 | 70 | 1022.4 |
| 20260906130046 | 16 | 66 | 3.2 | 4.8 | 0.00 | 0.00 | 0.00 | 71 | 1022.4 |
| 20260906125846 | 16 | 62 | 3.2 | 4.8 | 0.00 | 0.00 | 0.00 | 70 | 1022.4 |
| 20260906125645 | 16 | 58 | 1.6 | 4.8 | 0.00 | 0.00 | 0.00 | 70 | 1022.4 |
| 20260906125602 | 16 | 58 | 1.6 | 4.8 | 0.00 | 0.00 | 0.00 | 71 | 1022.4 |
| 20260906125444 | 16 | 59 | 1.6 | 4.8 | 0.00 | 0.00 | 0.00 | 71 | 1022.4 |
| 20260906125243 | 16 | 62 | 3.2 | 4.8 | 0.00 | 0.00 | 0.00 | 72 | 1022.3 |
| 20260906125044 | 16 | 62 | 3.2 | 4.8 | 0.00 | 0.00 | 0.00 | 72 | 1022.4 |
| 20260906124845 | 16 | 59 | 3.2 | 4.8 | 0.00 | 0.00 | 0.00 | 72 | 1022.4 |
| 20260906124645 | 16 | 67 | 3.2 | 4.8 | 0.00 | 0.00 | 0.00 | 71 | 1022.3 |
| 20260906124603 | 16 | 67 | 3.2 | 4.8 | 0.00 | 0.00 | 0.00 | 71 | 1022.3 |
| 20260906124443 | 16 | 61 | 3.2 | 4.8 | 0.00 | 0.00 | 0.00 | 71 | 1022.4 |
| 20260906124243 | 16 | 35 | 1.6 | 3.2 | 0.00 | 0.00 | 0.00 | 70 | 1022.3 |
| 20260906124057 | 16 | 32 | 1.6 | 3.2 | 0.00 | 0.00 | 0.00 | 69 | 1022.4 |
| 20260906124041 | 16 | 32 | 1.6 | 3.2 | 0.00 | 0.00 | 0.00 | 69 | 1022.3 |
| 20260906123838 | 16 | 19 | 1.6 | 4.8 | 0.00 | 0.00 | 0.00 | 69 | 1022.3 |
| 20260906123637 | 16 | 19 | 3.2 | 9.7 | 0.00 | 0.00 | 0.00 | 67 | 1022.2 |
| 20260906123558 | 16 | 19 | 3.2 | 9.7 | 0.00 | 0.00 | 0.00 | 67 | 1022.2 |
| 20260906123437 | 16 | 19 | 3.2 | 9.7 | 0.00 | 0.00 | 0.00 | 67 | 1022.2 |
| 20260906123237 | 16 | 19 | 3.2 | 9.7 | 0.00 | 0.00 | 0.00 | 66 | 1022.2 |
| 20260906123035 | 16 | 19 | 3.2 | 9.7 | 0.00 | 0.00 | 0.00 | 65 | 1022.2 |
| 20260906122838 | 16 | 40 | 3.2 | 9.7 | 0.00 | 0.00 | 0.00 | 65 | 1022.2 |
| 20260906122634 | 16 | 28 | 3.2 | 6.4 | 0.00 | 0.00 | 0.00 | 65 | 1022.2 |
| 20260906122556 | 16 | 5 | 3.2 | 6.4 | 0.00 | 0.00 | 0.00 | 64 | 1022.2 |
| 20260906122434 | 16 | 26 | 3.2 | 6.4 | 0.00 | 0.00 | 0.00 | 64 | 1022.2 |
| 20260906122234 | 16 | 51 | 3.2 | 6.4 | 0.00 | 0.00 | 0.00 | 64 | 1022.2 |
| 20260906122055 | 16 | 47 | 3.2 | 6.4 | 0.00 | 0.00 | 0.00 | 64 | 1022.2 |
| 20260906122033 | 16 | 46 | 3.2 | 6.4 | 0.00 | 0.00 | 0.00 | 64 | 1022.1 |
| 20260906121833 | 16 | 44 | 3.2 | 6.4 | 0.00 | 0.00 | 0.00 | 62 | 1022.1 |
| 20260906121633 | 16 | 45 | 3.2 | 4.8 | 0.00 | 0.00 | 0.00 | 61 | 1022.2 |
| 20260906121600 | 16 | 60 | 3.2 | 4.8 | 0.00 | 0.00 | 0.00 | 60 | 1022.1 |
| 20260906121555 | 16 | 44 | 3.2 | 4.8 | 0.00 | 0.00 | 0.00 | 61 | 1022.2 |
| 20260906121433 | 16 | 43 | 3.2 | 4.8 | 0.00 | 0.00 | 0.00 | 61 | 1022.2 |
| 20260906121232 | 16 | 38 | 3.2 | 4.8 | 0.00 | 0.00 | 0.00 | 60 | 1022.1 |
| 20260906121032 | 16 | 60 | 3.2 | 4.8 | 0.00 | 0.00 | 0.00 | 60 | 1022.1 |
| 20260906120829 | 16 | 62 | 3.2 | 4.8 | 0.00 | 0.00 | 0.00 | 60 | 1022.2 |
| 20260906120627 | 17 | 62 | 3.2 | 4.8 | 0.00 | 0.00 | 0.00 | 60 | 1022.2 |
| 20260906120556 | 17 | 62 | 3.2 | 4.8 | 0.00 | 0.00 | 0.00 | 60 | 1022.2 |
| 20260906120429 | 17 | 66 | 3.2 | 4.8 | 0.00 | 0.00 | 0.00 | 59 | 1022.2 |
| 20260906120227 | 17 | 68 | 1.6 | 4.8 | 0.00 | 0.00 | 0.00 | 59 | 1022.2 |
| 20260906120027 | 17 | 68 | 1.6 | 4.8 | 0.00 | 0.00 | 0.00 | 59 | 1022.2 |
| 20260906115823 | 17 | 64 | 1.6 | 3.2 | 0.00 | 0.00 | 0.00 | 59 | 1022.2 |
| 20260906115709 | 17 | 64 | 1.6 | 3.2 | 0.00 | 0.00 | 0.00 | 58 | 1022.2 |
| 20260906115557 | 17 | 64 | 1.6 | 3.2 | 0.00 | 0.00 | 0.00 | 58 | 1022.2 |
| 20260906115423 | 17 | 64 | 1.6 | 3.2 | 0.00 | 0.00 | 0.00 | 59 | 1022.2 |
| 20260906115221 | 17 | 64 | 1.6 | 4.8 | 0.00 | 0.00 | 0.00 | 59 | 1022.2 |
| 20260906115023 | 17 | 64 | 1.6 | 4.8 | 0.00 | 0.00 | 0.00 | 58 | 1022.2 |
| 20260906114821 | 17 | 64 | 1.6 | 4.8 | 0.00 | 0.00 | 0.00 | 58 | 1022.2 |
| 20260906114621 | 17 | 64 | 1.6 | 4.8 | 0.00 | 0.00 | 0.00 | 58 | 1022.2 |
| 20260906114555 | 17 | 64 | 1.6 | 4.8 | 0.00 | 0.00 | 0.00 | 58 | 1022.2 |
| 20260906114420 | 17 | 64 | 1.6 | 4.8 | 0.00 | 0.00 | 0.00 | 58 | 1022.2 |
| 20260906114222 | 17 | 52 | 1.6 | 4.8 | 0.00 | 0.00 | 0.00 | 57 | 1022.2 |
| 20260906114055 | 17 | 52 | 0.0 | 4.8 | 0.00 | 0.00 | 0.00 | 57 | 1022.2 |
| 20260906114019 | 17 | 54 | 0.0 | 4.8 | 0.00 | 0.00 | 0.00 | 57 | 1022.2 |
| 20260906113818 | 17 | 304 | 0.0 | 3.2 | 0.00 | 0.00 | 0.00 | 57 | 1022.2 |
| 20260906113618 | 17 | 291 | 0.0 | 1.6 | 0.00 | 0.00 | 0.00 | 57 | 1022.2 |
| 20260906113601 | 17 | 291 | 1.6 | 4.8 | 0.00 | 0.00 | 0.00 | 56 | 1022.1 |
| 20260906113555 | 17 | 291 | 0.0 | 1.6 | 0.00 | 0.00 | 0.00 | 57 | 1022.2 |
| 20260906113416 | 17 | 291 | 0.0 | 1.6 | 0.00 | 0.00 | 0.00 | 56 | 1022.2 |
| 20260906113216 | 17 | 291 | 0.0 | 3.2 | 0.00 | 0.00 | 0.00 | 56 | 1022.2 |
| 20260906113015 | 17 | 291 | 1.6 | 4.8 | 0.00 | 0.00 | 0.00 | 56 | 1022.1 |
| 20260906112813 | 17 | 291 | 1.6 | 6.4 | 0.00 | 0.00 | 0.00 | 56 | 1022.1 |
| 20260906112611 | 17 | 291 | 3.2 | 6.4 | 0.00 | 0.00 | 0.00 | 56 | 1022.1 |
| 20260906112556 | 17 | 291 | 3.2 | 6.4 | 0.00 | 0.00 | 0.00 | 56 | 1022.1 |
| 20260906112409 | 17 | 291 | 3.2 | 6.4 | 0.00 | 0.00 | 0.00 | 56 | 1022.1 |
| 20260906112207 | 17 | 291 | 3.2 | 6.4 | 0.00 | 0.00 | 0.00 | 56 | 1021.9 |
| 20260906112053 | 17 | 299 | 3.2 | 6.4 | 0.00 | 0.00 | 0.00 | 56 | 1021.9 |
| 20260906112008 | 17 | 311 | 3.2 | 6.4 | 0.00 | 0.00 | 0.00 | 56 | 1021.9 |
| 20260906111809 | 17 | 324 | 1.6 | 4.8 | 0.00 | 0.00 | 0.00 | 56 | 1021.9 |
| 20260906111609 | 17 | 36 | 1.6 | 3.2 | 0.00 | 0.00 | 0.00 | 56 | 1021.9 |
| 20260906111555 | 17 | 36 | 1.6 | 3.2 | 0.00 | 0.00 | 0.00 | 56 | 1021.9 |
| 20260906111408 | 17 | 36 | 0.0 | 3.2 | 0.00 | 0.00 | 0.00 | 56 | 1021.9 |
| 20260906111209 | 17 | 36 | 0.0 | 3.2 | 0.00 | 0.00 | 0.00 | 56 | 1021.9 |
| 20260906111053 | 17 | 36 | 0.0 | 3.2 | 0.00 | 0.00 | 0.00 | 56 | 1021.9 |
| 20260906111009 | 17 | 36 | 0.0 | 1.6 | 0.00 | 0.00 | 0.00 | 56 | 1021.8 |
| 20260906110809 | 17 | 36 | 0.0 | 3.2 | 0.00 | 0.00 | 0.00 | 56 | 1021.8 |
| 20260906110606 | 17 | 36 | 1.6 | 3.2 | 0.00 | 0.00 | 0.00 | 56 | 1021.9 |
| 20260906110554 | 17 | 36 | 1.6 | 3.2 | 0.00 | 0.00 | 0.00 | 56 | 1021.9 |
| 20260906110406 | 17 | 36 | 1.6 | 3.2 | 0.00 | 0.00 | 0.00 | 56 | 1021.9 |
| 20260906110206 | 17 | 36 | 1.6 | 3.2 | 0.00 | 0.00 | 0.00 | 56 | 1022.1 |
| 20260906110056 | 17 | 88 | 1.6 | 3.2 | 0.00 | 0.00 | 0.00 | 57 | 1021.9 |
| 20260906110051 | 17 | 36 | 1.6 | 3.2 | 0.00 | 0.00 | 0.00 | 56 | 1021.9 |
| 20260906110005 | 17 | 36 | 1.6 | 3.2 | 0.00 | 0.00 | 0.00 | 56 | 1022.1 |
| 20260906105804 | 17 | 36 | 1.6 | 3.2 | 0.00 | 0.00 | 0.00 | 56 | 1021.9 |
| 20260906105659 | 17 | 71 | 1.6 | 3.2 | 0.00 | 0.00 | 0.00 | 57 | 1021.9 |
| 20260906105402 | 17 | 88 | 1.6 | 3.2 | 0.00 | 0.00 | 0.00 | 57 | 1021.9 |
| 20260906105200 | 17 | 88 | 1.6 | 3.2 | 0.00 | 0.00 | 0.00 | 58 | 1021.9 |
| 20260906105053 | 17 | 88 | 1.6 | 3.2 | 0.00 | 0.00 | 0.00 | 58 | 1021.9 |
| 20260906105000 | 17 | 88 | 1.6 | 3.2 | 0.00 | 0.00 | 0.00 | 58 | 1021.9 |
| 20260906104759 | 17 | 88 | 1.6 | 3.2 | 0.00 | 0.00 | 0.00 | 58 | 1021.8 |
| 20260906104551 | 17 | 88 | 1.6 | 3.2 | 0.00 | 0.00 | 0.00 | 58 | 1021.7 |
| 20260906104359 | 17 | 92 | 1.6 | 3.2 | 0.00 | 0.00 | 0.00 | 58 | 1021.7 |
| 20260906104157 | 17 | 92 | 1.6 | 3.2 | 0.00 | 0.00 | 0.00 | 58 | 1021.7 |
| 20260906104051 | 17 | 92 | 1.6 | 3.2 | 0.00 | 0.00 | 0.00 | 58 | 1021.7 |
| 20260906103955 | 17 | 92 | 1.6 | 3.2 | 0.00 | 0.00 | 0.00 | 58 | 1021.7 |
| 20260906103751 | 17 | 92 | 1.6 | 4.8 | 0.00 | 0.00 | 0.00 | 58 | 1021.8 |
| 20260906103602 | 18 | 111 | 1.6 | 4.8 | 0.00 | 0.00 | 0.00 | 55 | 1021.8 |
| 20260906103552 | 17 | 92 | 1.6 | 4.8 | 0.00 | 0.00 | 0.00 | 57 | 1021.8 |
| 20260906103351 | 17 | 100 | 1.6 | 4.8 | 0.00 | 0.00 | 0.00 | 57 | 1021.8 |
| 20260906103207 | 17 | 106 | 1.6 | 4.8 | 0.00 | 0.00 | 0.00 | 55 | 1021.8 |
| 20260906102947 | 18 | 120 | 1.6 | 4.8 | 0.00 | 0.00 | 0.00 | 55 | 1021.8 |
| 20260906102749 | 18 | 115 | 1.6 | 4.8 | 0.00 | 0.00 | 0.00 | 54 | 1021.8 |
| 20260906102550 | 18 | 116 | 1.6 | 4.8 | 0.00 | 0.00 | 0.00 | 54 | 1021.7 |
| 20260906102547 | 18 | 119 | 1.6 | 4.8 | 0.00 | 0.00 | 0.00 | 54 | 1021.8 |
| 20260906102345 | 18 | 183 | 1.6 | 3.2 | 0.00 | 0.00 | 0.00 | 53 | 1021.7 |
| 20260906102143 | 18 | 183 | 1.6 | 3.2 | 0.00 | 0.00 | 0.00 | 53 | 1021.7 |
| 20260906102049 | 18 | 183 | 1.6 | 3.2 | 0.00 | 0.00 | 0.00 | 53 | 1021.7 |
| 20260906101943 | 18 | 183 | 1.6 | 3.2 | 0.00 | 0.00 | 0.00 | 53 | 1021.7 |
| 20260906101744 | 18 | 183 | 1.6 | 4.8 | 0.00 | 0.00 | 0.00 | 52 | 1021.7 |
| 20260906101549 | 18 | 183 | 1.6 | 6.4 | 0.00 | 0.00 | 0.00 | 52 | 1021.7 |
| 20260906101544 | 18 | 183 | 3.2 | 6.4 | 0.00 | 0.00 | 0.00 | 52 | 1021.7 |
| 20260906101346 | 18 | 183 | 3.2 | 6.4 | 0.00 | 0.00 | 0.00 | 52 | 1021.7 |
| 20260906101144 | 18 | 183 | 3.2 | 6.4 | 0.00 | 0.00 | 0.00 | 52 | 1021.7 |
| 20260906101049 | 18 | 183 | 3.2 | 6.4 | 0.00 | 0.00 | 0.00 | 52 | 1021.7 |
| 20260906100942 | 18 | 183 | 3.2 | 6.4 | 0.00 | 0.00 | 0.00 | 52 | 1021.7 |
| 20260906100740 | 18 | 182 | 3.2 | 6.4 | 0.00 | 0.00 | 0.00 | 52 | 1021.7 |
| 20260906100550 | 18 | 191 | 3.2 | 6.4 | 0.00 | 0.00 | 0.00 | 52 | 1021.7 |
| 20260906100539 | 18 | 199 | 3.2 | 6.4 | 0.00 | 0.00 | 0.00 | 52 | 1021.8 |
| 20260906100340 | 18 | 199 | 3.2 | 4.8 | 0.00 | 0.00 | 0.00 | 51 | 1021.8 |
| 20260906100138 | 18 | 199 | 3.2 | 4.8 | 0.00 | 0.00 | 0.00 | 51 | 1021.7 |
| 20260906100050 | 18 | 199 | 3.2 | 4.8 | 0.00 | 0.00 | 0.00 | 51 | 1021.7 |
| 20260906095939 | 19 | 199 | 3.2 | 4.8 | 0.00 | 0.00 | 0.00 | 50 | 1021.7 |
| 20260906095736 | 19 | 199 | 3.2 | 4.8 | 0.00 | 0.00 | 0.00 | 50 | 1021.7 |
| 20260906095535 | 19 | 199 | 3.2 | 4.8 | 0.00 | 0.00 | 0.00 | 50 | 1021.7 |
| 20260906095337 | 19 | 199 | 3.2 | 4.8 | 0.00 | 0.00 | 0.00 | 49 | 1021.7 |
| 20260906095133 | 19 | 210 | 3.2 | 4.8 | 0.00 | 0.00 | 0.00 | 49 | 1021.8 |
| 20260906095049 | 19 | 210 | 3.2 | 4.8 | 0.00 | 0.00 | 0.00 | 49 | 1021.8 |
| 20260906094934 | 19 | 210 | 1.6 | 4.8 | 0.00 | 0.00 | 0.00 | 49 | 1021.8 |
| 20260906094732 | 19 | 233 | 1.6 | 4.8 | 0.00 | 0.00 | 0.00 | 49 | 1021.8 |
| 20260906094547 | 19 | 233 | 1.6 | 4.8 | 0.00 | 0.00 | 0.00 | 49 | 1021.8 |
| 20260906094531 | 19 | 233 | 1.6 | 4.8 | 0.00 | 0.00 | 0.00 | 49 | 1021.7 |
| 20260906094329 | 19 | 233 | 1.6 | 3.2 | 0.00 | 0.00 | 0.00 | 49 | 1021.7 |
| 20260906094125 | 19 | 233 | 1.6 | 3.2 | 0.00 | 0.00 | 0.00 | 48 | 1021.7 |
| 20260906094048 | 19 | 233 | 1.6 | 3.2 | 0.00 | 0.00 | 0.00 | 48 | 1021.7 |
| 20260906093927 | 19 | 233 | 1.6 | 3.2 | 0.00 | 0.00 | 0.00 | 48 | 1021.6 |
| 20260906093724 | 20 | 233 | 1.6 | 3.2 | 0.00 | 0.00 | 0.00 | 48 | 1021.6 |
| 20260906093553 | 20 | 251 | 0.0 | 1.6 | 0.00 | 0.00 | 0.00 | 48 | 1021.7 |
| 20260906093522 | 20 | 233 | 1.6 | 3.2 | 0.00 | 0.00 | 0.00 | 48 | 1021.7 |
| 20260906093319 | 20 | 233 | 1.6 | 3.2 | 0.00 | 0.00 | 0.00 | 48 | 1021.7 |
| 20260906093204 | 20 | 251 | 1.6 | 3.2 | 0.00 | 0.00 | 0.00 | 48 | 1021.7 |
| 20260906093153 | 20 | 251 | 1.6 | 3.2 | 0.00 | 0.00 | 0.00 | 48 | 1021.7 |
| 20260906092919 | 20 | 251 | 0.0 | 3.2 | 0.00 | 0.00 | 0.00 | 48 | 1021.7 |
| 20260906092721 | 20 | 251 | 0.0 | 1.6 | 0.00 | 0.00 | 0.00 | 48 | 1021.7 |
| 20260906092518 | 20 | 251 | 0.0 | 1.6 | 0.00 | 0.00 | 0.00 | 48 | 1021.7 |
| 20260906092318 | 20 | 251 | 1.6 | 3.2 | 0.00 | 0.00 | 0.00 | 48 | 1021.6 |
| 20260906092117 | 20 | 251 | 1.6 | 4.8 | 0.00 | 0.00 | 0.00 | 48 | 1021.7 |
| 20260906092047 | 20 | 251 | 1.6 | 4.8 | 0.00 | 0.00 | 0.00 | 48 | 1021.7 |
| 20260906091917 | 20 | 251 | 1.6 | 4.8 | 0.00 | 0.00 | 0.00 | 48 | 1021.7 |
| 20260906091715 | 20 | 251 | 1.6 | 4.8 | 0.00 | 0.00 | 0.00 | 48 | 1021.7 |
| 20260906091552 | 19 | 355 | 0.0 | 3.2 | 0.00 | 0.00 | 0.00 | 49 | 1021.6 |
| 20260906091548 | 20 | 251 | 1.6 | 4.8 | 0.00 | 0.00 | 0.00 | 49 | 1021.7 |
| 20260906091514 | 19 | 251 | 1.6 | 4.8 | 0.00 | 0.00 | 0.00 | 49 | 1021.7 |
| 20260906091314 | 19 | 252 | 0.0 | 4.8 | 0.00 | 0.00 | 0.00 | 49 | 1021.6 |
| 20260906091156 | 19 | 355 | 0.0 | 3.2 | 0.00 | 0.00 | 0.00 | 49 | 1021.6 |
| 20260906090914 | 19 | 355 | 1.6 | 4.8 | 0.00 | 0.00 | 0.00 | 50 | 1021.6 |
| 20260906090714 | 19 | 355 | 1.6 | 6.4 | 0.00 | 0.00 | 0.00 | 50 | 1021.6 |
| 20260906090547 | 18 | 355 | 1.6 | 6.4 | 0.00 | 0.00 | 0.00 | 51 | 1021.6 |
| 20260906090513 | 18 | 355 | 1.6 | 6.4 | 0.00 | 0.00 | 0.00 | 51 | 1021.6 |
| 20260906090312 | 18 | 355 | 1.6 | 6.4 | 0.00 | 0.00 | 0.00 | 51 | 1021.6 |
| 20260906090111 | 18 | 344 | 1.6 | 6.4 | 0.00 | 0.00 | 0.00 | 52 | 1021.6 |
| 20260906090052 | 19 | 165 | 3.2 | 3.2 | 0.00 | 0.00 | 0.00 | 51 | 1021.6 |
| 20260906090048 | 18 | 344 | 1.6 | 6.4 | 0.00 | 0.00 | 0.00 | 52 | 1021.6 |
| 20260906085908 | 18 | 330 | 3.2 | 6.4 | 0.00 | 0.00 | 0.00 | 52 | 1021.6 |
| 20260906085707 | 19 | 308 | 3.2 | 4.8 | 0.00 | 0.00 | 0.00 | 51 | 1021.5 |
| 20260906085508 | 19 | 165 | 3.2 | 3.2 | 0.00 | 0.00 | 0.00 | 51 | 1021.5 |
| 20260906085309 | 19 | 165 | 3.2 | 3.2 | 0.00 | 0.00 | 0.00 | 50 | 1021.5 |
| 20260906085106 | 19 | 165 | 1.6 | 3.2 | 0.00 | 0.00 | 0.00 | 51 | 1021.5 |
| 20260906085045 | 19 | 161 | 1.6 | 3.2 | 0.00 | 0.00 | 0.00 | 51 | 1021.5 |
| 20260906084905 | 18 | 161 | 1.6 | 3.2 | 0.00 | 0.00 | 0.00 | 51 | 1021.5 |
| 20260906084701 | 18 | 161 | 1.6 | 3.2 | 0.00 | 0.00 | 0.00 | 51 | 1021.5 |
| 20260906084551 | 19 | 130 | 1.6 | 3.2 | 0.00 | 0.00 | 0.00 | 51 | 1021.5 |
| 20260906084545 | 18 | 139 | 1.6 | 3.2 | 0.00 | 0.00 | 0.00 | 52 | 1021.5 |
| 20260906084459 | 18 | 131 | 1.6 | 3.2 | 0.00 | 0.00 | 0.00 | 52 | 1021.5 |
| 20260906084301 | 18 | 131 | 1.6 | 3.2 | 0.00 | 0.00 | 0.00 | 52 | 1021.6 |
| 20260906084157 | 18 | 130 | 1.6 | 3.2 | 0.00 | 0.00 | 0.00 | 52 | 1021.6 |
| 20260906084046 | 18 | 130 | 1.6 | 3.2 | 0.00 | 0.00 | 0.00 | 52 | 1021.6 |
| 20260906083855 | 18 | 130 | 1.6 | 3.2 | 0.00 | 0.00 | 0.00 | 51 | 1021.5 |
| 20260906083702 | 18 | 130 | 1.6 | 3.2 | 0.00 | 0.00 | 0.00 | 51 | 1021.5 |
| 20260906083451 | 19 | 130 | 1.6 | 3.2 | 0.00 | 0.00 | 0.00 | 51 | 1021.5 |
| 20260906083251 | 19 | 131 | 1.6 | 3.2 | 0.00 | 0.00 | 0.00 | 50 | 1021.5 |
| 20260906083051 | 19 | 130 | 1.6 | 3.2 | 0.00 | 0.00 | 0.00 | 50 | 1021.5 |
| 20260906083045 | 19 | 130 | 1.6 | 3.2 | 0.00 | 0.00 | 0.00 | 50 | 1021.6 |
| 20260906082849 | 19 | 130 | 1.6 | 3.2 | 0.00 | 0.00 | 0.00 | 50 | 1021.5 |
| 20260906082650 | 19 | 130 | 1.6 | 4.8 | 0.00 | 0.00 | 0.00 | 49 | 1021.6 |
| 20260906082546 | 19 | 130 | 1.6 | 4.8 | 0.00 | 0.00 | 0.00 | 49 | 1021.6 |
| 20260906082449 | 19 | 130 | 1.6 | 4.8 | 0.00 | 0.00 | 0.00 | 49 | 1021.6 |
| 20260906082247 | 19 | 134 | 3.2 | 4.8 | 0.00 | 0.00 | 0.00 | 50 | 1021.6 |
| 20260906082045 | 18 | 113 | 3.2 | 4.8 | 0.00 | 0.00 | 0.00 | 50 | 1021.6 |
| 20260906081846 | 18 | 129 | 3.2 | 4.8 | 0.00 | 0.00 | 0.00 | 53 | 1021.6 |
| 20260906081645 | 18 | 135 | 3.2 | 4.8 | 0.00 | 0.00 | 0.00 | 52 | 1021.6 |
| 20260906081545 | 18 | 127 | 3.2 | 4.8 | 0.00 | 0.00 | 0.00 | 53 | 1021.6 |
| 20260906081446 | 18 | 132 | 1.6 | 4.8 | 0.00 | 0.00 | 0.00 | 53 | 1021.6 |
| 20260906081245 | 18 | 134 | 1.6 | 6.4 | 0.00 | 0.00 | 0.00 | 53 | 1021.6 |
| 20260906081054 | 19 | 166 | 1.6 | 6.4 | 0.00 | 0.00 | 0.00 | 52 | 1021.7 |
| 20260906081045 | 18 | 156 | 1.6 | 6.4 | 0.00 | 0.00 | 0.00 | 53 | 1021.7 |
| 20260906080843 | 18 | 166 | 1.6 | 6.4 | 0.00 | 0.00 | 0.00 | 52 | 1021.7 |
| 20260906080700 | 19 | 166 | 1.6 | 6.4 | 0.00 | 0.00 | 0.00 | 52 | 1021.6 |
| 20260906080443 | 19 | 166 | 1.6 | 6.4 | 0.00 | 0.00 | 0.00 | 52 | 1021.7 |
| 20260906080245 | 19 | 188 | 3.2 | 6.4 | 0.00 | 0.00 | 0.00 | 52 | 1021.7 |
| 20260906080044 | 19 | 154 | 3.2 | 6.4 | 0.00 | 0.00 | 0.00 | 51 | 1021.7 |
| 20260906075843 | 19 | 145 | 3.2 | 6.4 | 0.00 | 0.00 | 0.00 | 51 | 1021.7 |
| 20260906075643 | 19 | 163 | 3.2 | 6.4 | 0.00 | 0.00 | 0.00 | 51 | 1021.8 |
| 20260906075543 | 19 | 165 | 3.2 | 6.4 | 0.00 | 0.00 | 0.00 | 51 | 1021.7 |
| 20260906075443 | 19 | 163 | 3.2 | 6.4 | 0.00 | 0.00 | 0.00 | 51 | 1021.7 |
| 20260906075244 | 19 | 164 | 3.2 | 6.4 | 0.00 | 0.00 | 0.00 | 51 | 1021.8 |
| 20260906075042 | 19 | 180 | 3.2 | 6.4 | 0.00 | 0.00 | 0.00 | 51 | 1021.7 |
| 20260906074844 | 19 | 148 | 3.2 | 6.4 | 0.00 | 0.00 | 0.00 | 51 | 1021.8 |
| 20260906074644 | 19 | 177 | 3.2 | 6.4 | 0.00 | 0.00 | 0.00 | 51 | 1021.7 |
| 20260906074543 | 19 | 157 | 3.2 | 6.4 | 0.00 | 0.00 | 0.00 | 51 | 1021.7 |
| 20260906074444 | 19 | 165 | 3.2 | 6.4 | 0.00 | 0.00 | 0.00 | 51 | 1021.7 |
| 20260906074243 | 19 | 169 | 4.8 | 6.4 | 0.00 | 0.00 | 0.00 | 51 | 1021.7 |
| 20260906074044 | 19 | 166 | 4.8 | 8.0 | 0.00 | 0.00 | 0.00 | 52 | 1021.7 |
| 20260906074039 | 19 | 165 | 4.8 | 8.0 | 0.00 | 0.00 | 0.00 | 52 | 1021.7 |
| 20260906073841 | 19 | 171 | 4.8 | 8.0 | 0.00 | 0.00 | 0.00 | 52 | 1021.7 |
| 20260906073640 | 20 | 180 | 4.8 | 8.0 | 0.00 | 0.00 | 0.00 | 51 | 1021.7 |
| 20260906073544 | 20 | 190 | 4.8 | 8.0 | 0.00 | 0.00 | 0.00 | 51 | 1021.7 |
| 20260906073440 | 20 | 175 | 4.8 | 8.0 | 0.00 | 0.00 | 0.00 | 52 | 1021.7 |
| 20260906073238 | 20 | 180 | 3.2 | 8.0 | 0.00 | 0.00 | 0.00 | 51 | 1021.7 |
| 20260906073043 | 20 | 179 | 3.2 | 8.0 | 0.00 | 0.00 | 0.00 | 51 | 1021.7 |
| 20260906073037 | 20 | 164 | 3.2 | 8.0 | 0.00 | 0.00 | 0.00 | 51 | 1021.7 |
| 20260906072838 | 19 | 178 | 3.2 | 6.4 | 0.00 | 0.00 | 0.00 | 52 | 1021.7 |
| 20260906072637 | 19 | 161 | 1.6 | 6.4 | 0.00 | 0.00 | 0.00 | 52 | 1021.7 |
| 20260906072542 | 19 | 166 | 1.6 | 6.4 | 0.00 | 0.00 | 0.00 | 52 | 1021.7 |
| 20260906072433 | 19 | 150 | 1.6 | 6.4 | 0.00 | 0.00 | 0.00 | 52 | 1021.8 |
| 20260906072233 | 20 | 163 | 1.6 | 6.4 | 0.00 | 0.00 | 0.00 | 51 | 1021.7 |
| 20260906072043 | 20 | 159 | 1.6 | 6.4 | 0.00 | 0.00 | 0.00 | 51 | 1021.7 |
| 20260906072035 | 20 | 172 | 1.6 | 6.4 | 0.00 | 0.00 | 0.00 | 51 | 1021.7 |
| 20260906071833 | 20 | 175 | 1.6 | 4.8 | 0.00 | 0.00 | 0.00 | 51 | 1021.7 |
| 20260906071633 | 20 | 161 | 1.6 | 4.8 | 0.00 | 0.00 | 0.00 | 50 | 1021.7 |
| 20260906071541 | 20 | 158 | 1.6 | 4.8 | 0.00 | 0.00 | 0.00 | 50 | 1021.7 |
| 20260906071433 | 20 | 158 | 1.6 | 4.8 | 0.00 | 0.00 | 0.00 | 50 | 1021.7 |
| 20260906071235 | 20 | 158 | 1.6 | 4.8 | 0.00 | 0.00 | 0.00 | 49 | 1021.7 |
| 20260906071033 | 20 | 166 | 1.6 | 4.8 | 0.00 | 0.00 | 0.00 | 50 | 1021.7 |
| 20260906070833 | 20 | 161 | 3.2 | 6.4 | 0.00 | 0.00 | 0.00 | 50 | 1021.7 |
| 20260906070633 | 20 | 165 | 3.2 | 6.4 | 0.00 | 0.00 | 0.00 | 51 | 1021.6 |
| 20260906070542 | 20 | 167 | 3.2 | 6.4 | 0.00 | 0.00 | 0.00 | 51 | 1021.6 |
| 20260906070431 | 19 | 168 | 3.2 | 6.4 | 0.00 | 0.00 | 0.00 | 51 | 1021.7 |
| 20260906070232 | 19 | 168 | 3.2 | 6.4 | 0.00 | 0.00 | 0.00 | 51 | 1021.6 |
| 20260906070031 | 20 | 167 | 3.2 | 6.4 | 0.00 | 0.00 | 0.00 | 52 | 1021.7 |
| 20260906065829 | 20 | 167 | 3.2 | 6.4 | 0.00 | 0.00 | 0.00 | 51 | 1021.6 |
| 20260906065630 | 20 | 167 | 1.6 | 6.4 | 0.00 | 0.00 | 0.00 | 49 | 1021.6 |
| 20260906065540 | 20 | 167 | 1.6 | 6.4 | 0.00 | 0.00 | 0.00 | 49 | 1021.6 |
| 20260906065429 | 20 | 165 | 1.6 | 6.4 | 0.00 | 0.00 | 0.00 | 49 | 1021.6 |
| 20260906065227 | 20 | 157 | 1.6 | 3.2 | 0.00 | 0.00 | 0.00 | 49 | 1021.6 |
| 20260906065040 | 20 | 123 | 0.0 | 3.2 | 0.00 | 0.00 | 0.00 | 49 | 1021.6 |
| 20260906065028 | 20 | 123 | 0.0 | 3.2 | 0.00 | 0.00 | 0.00 | 48 | 1021.6 |
| 20260906064829 | 20 | 123 | 0.0 | 3.2 | 0.00 | 0.00 | 0.00 | 47 | 1021.6 |
| 20260906064626 | 20 | 104 | 0.0 | 1.6 | 0.00 | 0.00 | 0.00 | 47 | 1021.6 |
| 20260906064539 | 21 | 104 | 0.0 | 1.6 | 0.00 | 0.00 | 0.00 | 46 | 1021.6 |
| 20260906064425 | 21 | 104 | 1.6 | 4.8 | 0.00 | 0.00 | 0.00 | 46 | 1021.6 |
| 20260906064222 | 21 | 104 | 1.6 | 4.8 | 0.00 | 0.00 | 0.00 | 46 | 1021.6 |
| 20260906064019 | 21 | 104 | 1.6 | 4.8 | 0.00 | 0.00 | 0.00 | 45 | 1021.7 |
| 20260906063820 | 21 | 104 | 1.6 | 4.8 | 0.00 | 0.00 | 0.00 | 45 | 1021.7 |
| 20260906063619 | 21 | 104 | 1.6 | 4.8 | 0.00 | 0.00 | 0.00 | 46 | 1021.7 |
| 20260906063539 | 21 | 104 | 1.6 | 4.8 | 0.00 | 0.00 | 0.00 | 46 | 1021.7 |
| 20260906063420 | 21 | 156 | 1.6 | 3.2 | 0.00 | 0.00 | 0.00 | 46 | 1021.7 |
| 20260906063218 | 21 | 156 | 1.6 | 6.4 | 0.00 | 0.00 | 0.00 | 46 | 1021.7 |
| 20260906063017 | 21 | 156 | 1.6 | 6.4 | 0.00 | 0.00 | 0.00 | 46 | 1021.7 |
| 20260906062819 | 21 | 163 | 3.2 | 6.4 | 0.00 | 0.00 | 0.00 | 47 | 1021.7 |
| 20260906062615 | 21 | 163 | 3.2 | 6.4 | 0.00 | 0.00 | 0.00 | 48 | 1021.7 |
| 20260906062539 | 21 | 163 | 3.2 | 6.4 | 0.00 | 0.00 | 0.00 | 48 | 1021.7 |
| 20260906062413 | 20 | 163 | 3.2 | 6.4 | 0.00 | 0.00 | 0.00 | 48 | 1021.7 |
| 20260906062212 | 20 | 194 | 1.6 | 6.4 | 0.00 | 0.00 | 0.00 | 49 | 1021.7 |
| 20260906062011 | 20 | 194 | 1.6 | 6.4 | 0.00 | 0.00 | 0.00 | 49 | 1021.7 |
| 20260906061808 | 20 | 200 | 1.6 | 4.8 | 0.00 | 0.00 | 0.00 | 50 | 1021.7 |
| 20260906061607 | 20 | 9 | 1.6 | 4.8 | 0.00 | 0.00 | 0.00 | 51 | 1021.7 |
| 20260906061537 | 20 | 9 | 1.6 | 4.8 | 0.00 | 0.00 | 0.00 | 51 | 1021.7 |
| 20260906061406 | 20 | 9 | 1.6 | 8.0 | 0.00 | 0.00 | 0.00 | 50 | 1021.7 |
| 20260906061206 | 20 | 17 | 1.6 | 8.0 | 0.00 | 0.00 | 0.00 | 51 | 1021.7 |
| 20260906061035 | 20 | 17 | 1.6 | 8.0 | 0.00 | 0.00 | 0.00 | 51 | 1021.7 |
| 20260906061003 | 20 | 17 | 1.6 | 8.0 | 0.00 | 0.00 | 0.00 | 51 | 1021.7 |
| 20260906060804 | 20 | 265 | 3.2 | 8.0 | 0.00 | 0.00 | 0.00 | 51 | 1021.7 |
| 20260906060600 | 20 | 262 | 3.2 | 8.0 | 0.00 | 0.00 | 0.00 | 51 | 1021.8 |
| 20260906060536 | 20 | 262 | 3.2 | 8.0 | 0.00 | 0.00 | 0.00 | 51 | 1021.8 |
| 20260906060359 | 20 | 262 | 4.8 | 9.7 | 0.00 | 0.00 | 0.00 | 51 | 1021.9 |
| 20260906060159 | 20 | 347 | 4.8 | 12.9 | 0.00 | 0.00 | 0.00 | 51 | 1021.9 |
| 20260906060036 | 20 | 355 | 6.4 | 12.9 | 0.00 | 0.00 | 0.00 | 51 | 1022.1 |
| 20260906060032 | 20 | 332 | 6.4 | 14.5 | 0.00 | 0.00 | 0.00 | 52 | 1022.1 |
| 20260906055958 | 20 | 355 | 6.4 | 14.5 | 0.00 | 0.00 | 0.00 | 50 | 1022.1 |
| 20260906055757 | 20 | 323 | 6.4 | 14.5 | 0.00 | 0.00 | 0.00 | 51 | 1022.1 |
| 20260906055641 | 20 | 315 | 8.0 | 14.5 | 0.00 | 0.00 | 0.00 | 52 | 1021.9 |
| 20260906055356 | 20 | 11 | 6.4 | 14.5 | 0.00 | 0.00 | 0.00 | 51 | 1021.9 |
| 20260906055157 | 21 | 355 | 6.4 | 14.5 | 0.00 | 0.00 | 0.00 | 49 | 1021.9 |
| 20260906055038 | 21 | 292 | 3.2 | 4.8 | 0.00 | 0.00 | 0.00 | 46 | 1021.9 |
| 20260906055031 | 21 | 340 | 4.8 | 14.5 | 0.00 | 0.00 | 0.00 | 48 | 1022.1 |
| 20260906054956 | 21 | 304 | 4.8 | 14.5 | 0.00 | 0.00 | 0.00 | 48 | 1022.1 |
| 20260906054756 | 21 | 296 | 3.2 | 14.5 | 0.00 | 0.00 | 0.00 | 47 | 1022.1 |
| 20260906054645 | 21 | 340 | 3.2 | 4.8 | 0.00 | 0.00 | 0.00 | 46 | 1021.9 |
| 20260906054531 | 21 | 340 | 3.2 | 4.8 | 0.00 | 0.00 | 0.00 | 46 | 1021.9 |
| 20260906054357 | 21 | 334 | 3.2 | 4.8 | 0.00 | 0.00 | 0.00 | 46 | 1021.9 |
| 20260906054156 | 21 | 315 | 1.6 | 4.8 | 0.00 | 0.00 | 0.00 | 46 | 1021.9 |
| 20260906053957 | 21 | 292 | 3.2 | 6.4 | 0.00 | 0.00 | 0.00 | 46 | 1021.9 |
| 20260906053758 | 21 | 270 | 3.2 | 6.4 | 0.00 | 0.00 | 0.00 | 46 | 1021.8 |
| 20260906053556 | 21 | 277 | 3.2 | 11.3 | 0.00 | 0.00 | 0.00 | 46 | 1021.9 |
| 20260906053540 | 21 | 284 | 4.8 | 16.1 | 0.00 | 0.00 | 0.00 | 46 | 1021.9 |
| 20260906053356 | 21 | 332 | 6.4 | 17.7 | 0.00 | 0.00 | 0.00 | 45 | 1021.8 |
| 20260906053157 | 21 | 5 | 8.0 | 20.9 | 0.00 | 0.00 | 0.00 | 43 | 1021.9 |
| 20260906053038 | 22 | 308 | 6.4 | 20.9 | 0.00 | 0.00 | 0.00 | 41 | 1022.1 |
| 20260906053032 | 22 | 5 | 8.0 | 20.9 | 0.00 | 0.00 | 0.00 | 43 | 1021.9 |
| 20260906052955 | 22 | 28 | 8.0 | 20.9 | 0.00 | 0.00 | 0.00 | 42 | 1021.9 |
| 20260906052758 | 22 | 323 | 8.0 | 20.9 | 0.00 | 0.00 | 0.00 | 42 | 1021.9 |
| 20260906052642 | 22 | 325 | 6.4 | 20.9 | 0.00 | 0.00 | 0.00 | 41 | 1022.1 |
| 20260906052356 | 22 | 319 | 4.8 | 20.9 | 0.00 | 0.00 | 0.00 | 40 | 1021.9 |
| 20260906052155 | 23 | 0 | 3.2 | 8.0 | 0.00 | 0.00 | 0.00 | 40 | 1021.8 |
| 20260906052031 | 23 | 22 | 4.8 | 9.7 | 0.00 | 0.00 | 0.00 | 41 | 1021.7 |
| 20260906051957 | 23 | 28 | 4.8 | 9.7 | 0.00 | 0.00 | 0.00 | 42 | 1021.7 |
| 20260906051755 | 23 | 56 | 4.8 | 9.7 | 0.00 | 0.00 | 0.00 | 41 | 1021.7 |
| 20260906051531 | 23 | 63 | 4.8 | 9.7 | 0.00 | 0.00 | 0.00 | 41 | 1021.7 |
| 20260906051353 | 23 | 69 | 4.8 | 9.7 | 0.00 | 0.00 | 0.00 | 40 | 1021.7 |
| 20260906051153 | 23 | 76 | 4.8 | 9.7 | 0.00 | 0.00 | 0.00 | 41 | 1021.7 |
| 20260906051035 | 23 | 69 | 3.2 | 6.4 | 0.00 | 0.00 | 0.00 | 43 | 1021.8 |
| 20260906051029 | 23 | 84 | 4.8 | 6.4 | 0.00 | 0.00 | 0.00 | 41 | 1021.8 |
| 20260906050952 | 23 | 86 | 4.8 | 6.4 | 0.00 | 0.00 | 0.00 | 41 | 1021.8 |
| 20260906050751 | 23 | 80 | 3.2 | 6.4 | 0.00 | 0.00 | 0.00 | 43 | 1021.7 |
| 20260906050639 | 23 | 72 | 3.2 | 6.4 | 0.00 | 0.00 | 0.00 | 43 | 1021.8 |
| 20260906050350 | 22 | 80 | 3.2 | 6.4 | 0.00 | 0.00 | 0.00 | 44 | 1021.9 |
| 20260906050150 | 22 | 88 | 3.2 | 6.4 | 0.00 | 0.00 | 0.00 | 47 | 1021.8 |
| 20260906050030 | 22 | 75 | 3.2 | 6.4 | 0.00 | 0.00 | 0.00 | 48 | 1021.8 |
| 20260906045950 | 22 | 78 | 3.2 | 6.4 | 0.00 | 0.00 | 0.00 | 49 | 1021.8 |
| 20260906045751 | 22 | 86 | 1.6 | 4.8 | 0.00 | 0.00 | 0.00 | 51 | 1021.8 |
| 20260906045529 | 22 | 74 | 1.6 | 3.2 | 0.00 | 0.00 | 0.00 | 53 | 1021.8 |
| 20260906045351 | 22 | 74 | 1.6 | 3.2 | 0.00 | 0.00 | 0.00 | 53 | 1021.8 |
| 20260906045148 | 22 | 74 | 1.6 | 3.2 | 0.00 | 0.00 | 0.00 | 53 | 1021.9 |
| 20260906045027 | 22 | 74 | 1.6 | 3.2 | 0.00 | 0.00 | 0.00 | 53 | 1021.8 |
| 20260906044948 | 22 | 74 | 1.6 | 3.2 | 0.00 | 0.00 | 0.00 | 53 | 1021.9 |
| 20260906044750 | 22 | 74 | 1.6 | 3.2 | 0.00 | 0.00 | 0.00 | 54 | 1021.9 |
| 20260906044546 | 22 | 74 | 1.6 | 3.2 | 0.00 | 0.00 | 0.00 | 53 | 1021.9 |
| 20260906044529 | 22 | 74 | 1.6 | 4.8 | 0.00 | 0.00 | 0.00 | 53 | 1021.9 |
| 20260906044347 | 22 | 74 | 1.6 | 4.8 | 0.00 | 0.00 | 0.00 | 53 | 1021.9 |
| 20260906044145 | 22 | 74 | 3.2 | 6.4 | 0.00 | 0.00 | 0.00 | 53 | 1021.9 |
| 20260906044028 | 22 | 74 | 3.2 | 8.0 | 0.00 | 0.00 | 0.00 | 52 | 1021.8 |
| 20260906043946 | 22 | 74 | 3.2 | 8.0 | 0.00 | 0.00 | 0.00 | 52 | 1021.9 |
| 20260906043746 | 23 | 74 | 4.8 | 8.0 | 0.00 | 0.00 | 0.00 | 52 | 1021.8 |
| 20260906043531 | 23 | 85 | 4.8 | 11.3 | 0.00 | 0.00 | 0.00 | 48 | 1021.8 |
| 20260906043525 | 23 | 74 | 4.8 | 8.0 | 0.00 | 0.00 | 0.00 | 52 | 1021.9 |
| 20260906043345 | 23 | 71 | 4.8 | 8.0 | 0.00 | 0.00 | 0.00 | 51 | 1021.8 |
| 20260906043146 | 23 | 82 | 4.8 | 11.3 | 0.00 | 0.00 | 0.00 | 51 | 1021.8 |
| 20260906042947 | 23 | 91 | 4.8 | 11.3 | 0.00 | 0.00 | 0.00 | 48 | 1021.9 |
| 20260906042746 | 23 | 120 | 4.8 | 11.3 | 0.00 | 0.00 | 0.00 | 52 | 1021.8 |
| 20260906042545 | 23 | 107 | 6.4 | 12.9 | 0.00 | 0.00 | 0.00 | 52 | 1021.8 |
| 20260906042526 | 23 | 86 | 6.4 | 12.9 | 0.00 | 0.00 | 0.00 | 51 | 1021.8 |
| 20260906042347 | 23 | 93 | 6.4 | 12.9 | 0.00 | 0.00 | 0.00 | 52 | 1021.9 |
| 20260906042146 | 23 | 68 | 6.4 | 12.9 | 0.00 | 0.00 | 0.00 | 50 | 1021.9 |
| 20260906042025 | 23 | 70 | 6.4 | 12.9 | 0.00 | 0.00 | 0.00 | 50 | 1021.9 |
| 20260906041944 | 23 | 74 | 4.8 | 12.9 | 0.00 | 0.00 | 0.00 | 50 | 1021.9 |
| 20260906041745 | 23 | 74 | 4.8 | 12.9 | 0.00 | 0.00 | 0.00 | 49 | 1021.9 |
| 20260906041544 | 23 | 74 | 4.8 | 8.0 | 0.00 | 0.00 | 0.00 | 48 | 1021.8 |
| 20260906041525 | 23 | 67 | 4.8 | 8.0 | 0.00 | 0.00 | 0.00 | 48 | 1021.8 |
| 20260906041343 | 23 | 62 | 6.4 | 8.0 | 0.00 | 0.00 | 0.00 | 48 | 1021.8 |
| 20260906041143 | 23 | 78 | 6.4 | 8.0 | 0.00 | 0.00 | 0.00 | 47 | 1021.8 |
| 20260906041026 | 23 | 71 | 4.8 | 8.0 | 0.00 | 0.00 | 0.00 | 47 | 1021.9 |
| 20260906040941 | 23 | 63 | 4.8 | 8.0 | 0.00 | 0.00 | 0.00 | 47 | 1021.9 |
| 20260906040741 | 23 | 73 | 4.8 | 8.0 | 0.00 | 0.00 | 0.00 | 47 | 1021.9 |
| 20260906040537 | 23 | 79 | 3.2 | 8.0 | 0.00 | 0.00 | 0.00 | 46 | 1021.9 |
| 20260906040525 | 23 | 75 | 3.2 | 8.0 | 0.00 | 0.00 | 0.00 | 46 | 1021.9 |
| 20260906040335 | 23 | 69 | 1.6 | 8.0 | 0.00 | 0.00 | 0.00 | 47 | 1021.9 |
| 20260906040135 | 23 | 84 | 1.6 | 6.4 | 0.00 | 0.00 | 0.00 | 42 | 1021.9 |
| 20260906040025 | 23 | 99 | 1.6 | 6.4 | 0.00 | 0.00 | 0.00 | 41 | 1021.8 |
| 20260906035935 | 23 | 99 | 1.6 | 6.4 | 0.00 | 0.00 | 0.00 | 40 | 1021.8 |
| 20260906035735 | 23 | 171 | 1.6 | 9.7 | 0.00 | 0.00 | 0.00 | 40 | 1021.8 |
| 20260906035525 | 23 | 171 | 3.2 | 9.7 | 0.00 | 0.00 | 0.00 | 39 | 1021.8 |
| 20260906035333 | 23 | 171 | 3.2 | 9.7 | 0.00 | 0.00 | 0.00 | 39 | 1021.8 |
| 20260906035133 | 23 | 171 | 4.8 | 11.3 | 0.00 | 0.00 | 0.00 | 39 | 1021.8 |
| 20260906035023 | 23 | 161 | 4.8 | 11.3 | 0.00 | 0.00 | 0.00 | 38 | 1021.8 |
| 20260906034930 | 23 | 161 | 6.4 | 11.3 | 0.00 | 0.00 | 0.00 | 38 | 1021.8 |
| 20260906034729 | 23 | 200 | 6.4 | 12.9 | 0.00 | 0.00 | 0.00 | 39 | 1021.8 |
| 20260906034529 | 23 | 122 | 6.4 | 12.9 | 0.00 | 0.00 | 0.00 | 39 | 1021.9 |
| 20260906034523 | 23 | 139 | 6.4 | 12.9 | 0.00 | 0.00 | 0.00 | 39 | 1021.9 |
| 20260906034329 | 24 | 181 | 6.4 | 12.9 | 0.00 | 0.00 | 0.00 | 40 | 1021.8 |
| 20260906034125 | 24 | 206 | 6.4 | 12.9 | 0.00 | 0.00 | 0.00 | 35 | 1021.8 |
| 20260906034026 | 25 | 172 | 3.2 | 9.7 | 0.00 | 0.00 | 0.00 | 33 | 1021.8 |
| 20260906034021 | 24 | 188 | 4.8 | 12.9 | 0.00 | 0.00 | 0.00 | 35 | 1021.7 |
| 20260906033926 | 25 | 213 | 4.8 | 12.9 | 0.00 | 0.00 | 0.00 | 35 | 1021.8 |
| 20260906033726 | 25 | 198 | 3.2 | 12.9 | 0.00 | 0.00 | 0.00 | 34 | 1021.8 |
| 20260906033627 | 25 | 155 | 3.2 | 9.7 | 0.00 | 0.00 | 0.00 | 33 | 1021.8 |
| 20260906033325 | 24 | 178 | 3.2 | 9.7 | 0.00 | 0.00 | 0.00 | 33 | 1021.8 |
| 20260906033126 | 24 | 155 | 3.2 | 11.3 | 0.00 | 0.00 | 0.00 | 34 | 1021.7 |
| 20260906033017 | 24 | 181 | 3.2 | 11.3 | 0.00 | 0.00 | 0.00 | 34 | 1021.7 |
| 20260906032923 | 24 | 175 | 4.8 | 12.9 | 0.00 | 0.00 | 0.00 | 34 | 1021.7 |
| 20260906032722 | 24 | 65 | 6.4 | 14.5 | 0.00 | 0.00 | 0.00 | 34 | 1021.7 |
| 20260906032516 | 23 | 64 | 8.0 | 17.7 | 0.00 | 0.00 | 0.00 | 34 | 1021.7 |
| 20260906032320 | 23 | 65 | 11.3 | 20.9 | 0.00 | 0.00 | 0.00 | 34 | 1021.8 |
| 20260906032118 | 23 | 77 | 12.9 | 20.9 | 0.00 | 0.00 | 0.00 | 34 | 1021.8 |
| 20260906032016 | 24 | 84 | 12.9 | 20.9 | 0.00 | 0.00 | 0.00 | 34 | 1021.8 |
| 20260906031919 | 24 | 88 | 11.3 | 20.9 | 0.00 | 0.00 | 0.00 | 33 | 1021.8 |
| 20260906031719 | 24 | 89 | 9.7 | 20.9 | 0.00 | 0.00 | 0.00 | 33 | 1021.8 |
| 20260906031519 | 24 | 121 | 8.0 | 20.9 | 0.00 | 0.00 | 0.00 | 33 | 1021.7 |
| 20260906031515 | 24 | 122 | 8.0 | 20.9 | 0.00 | 0.00 | 0.00 | 33 | 1021.7 |
| 20260906031319 | 24 | 125 | 4.8 | 19.3 | 0.00 | 0.00 | 0.00 | 32 | 1021.6 |
| 20260906031118 | 24 | 153 | 3.2 | 12.9 | 0.00 | 0.00 | 0.00 | 32 | 1021.3 |
| 20260906031017 | 25 | 137 | 3.2 | 6.4 | 0.00 | 0.00 | 0.00 | 32 | 1021.2 |
| 20260906030917 | 25 | 132 | 3.2 | 6.4 | 0.00 | 0.00 | 0.00 | 32 | 1021.1 |
| 20260906030719 | 25 | 178 | 3.2 | 6.4 | 0.00 | 0.00 | 0.00 | 32 | 1021.0 |
| 20260906030515 | 25 | 163 | 3.2 | 12.9 | 0.00 | 0.00 | 0.00 | 32 | 1020.9 |
| 20260906030318 | 25 | 103 | 6.4 | 16.1 | 0.00 | 0.00 | 0.00 | 32 | 1020.9 |
| 20260906030117 | 25 | 68 | 6.4 | 20.9 | 0.00 | 0.00 | 0.00 | 32 | 1020.9 |
| 20260906030023 | 25 | 190 | 4.8 | 6.4 | 0.00 | 0.00 | 0.00 | 31 | 1020.5 |
| 20260906030015 | 25 | 34 | 6.4 | 20.9 | 0.00 | 0.00 | 0.00 | 31 | 1021.0 |
| 20260906025916 | 25 | 32 | 6.4 | 20.9 | 0.00 | 0.00 | 0.00 | 32 | 1021.0 |
| 20260906025714 | 25 | 5 | 6.4 | 20.9 | 0.00 | 0.00 | 0.00 | 31 | 1020.9 |
| 20260906025511 | 25 | 319 | 6.4 | 20.9 | 0.00 | 0.00 | 0.00 | 31 | 1020.9 |
| 20260906025312 | 25 | 315 | 4.8 | 20.9 | 0.00 | 0.00 | 0.00 | 31 | 1020.7 |
| 20260906025130 | 25 | 186 | 4.8 | 6.4 | 0.00 | 0.00 | 0.00 | 31 | 1020.4 |
| 20260906024910 | 25 | 183 | 4.8 | 6.4 | 0.00 | 0.00 | 0.00 | 31 | 1020.4 |
| 20260906024710 | 25 | 186 | 4.8 | 8.0 | 0.00 | 0.00 | 0.00 | 31 | 1020.4 |
| 20260906024517 | 25 | 176 | 4.8 | 8.0 | 0.00 | 0.00 | 0.00 | 31 | 1020.4 |
| 20260906024509 | 25 | 181 | 4.8 | 8.0 | 0.00 | 0.00 | 0.00 | 31 | 1020.4 |
| 20260906024308 | 25 | 167 | 4.8 | 8.0 | 0.00 | 0.00 | 0.00 | 31 | 1020.4 |
| 20260906024108 | 25 | 165 | 4.8 | 8.0 | 0.00 | 0.00 | 0.00 | 31 | 1020.3 |
| 20260906024020 | 25 | 172 | 4.8 | 8.0 | 0.00 | 0.00 | 0.00 | 30 | 1020.1 |
| 20260906024016 | 25 | 168 | 4.8 | 8.0 | 0.00 | 0.00 | 0.00 | 31 | 1020.3 |
| 20260906023908 | 25 | 168 | 4.8 | 8.0 | 0.00 | 0.00 | 0.00 | 31 | 1020.3 |
| 20260906023709 | 25 | 170 | 4.8 | 8.0 | 0.00 | 0.00 | 0.00 | 30 | 1020.3 |
| 20260906023634 | 25 | 209 | 3.2 | 6.4 | 0.00 | 0.00 | 0.00 | 30 | 1020.3 |
| 20260906023509 | 25 | 161 | 4.8 | 8.0 | 0.00 | 0.00 | 0.00 | 30 | 1020.1 |
| 20260906023306 | 25 | 171 | 4.8 | 8.0 | 0.00 | 0.00 | 0.00 | 30 | 1020.3 |
| 20260906023132 | 25 | 168 | 4.8 | 6.4 | 0.00 | 0.00 | 0.00 | 30 | 1020.1 |
| 20260906023014 | 25 | 176 | 4.8 | 6.4 | 0.00 | 0.00 | 0.00 | 30 | 1020.3 |
| 20260906022907 | 25 | 182 | 3.2 | 6.4 | 0.00 | 0.00 | 0.00 | 30 | 1020.3 |
| 20260906022703 | 25 | 202 | 3.2 | 6.4 | 0.00 | 0.00 | 0.00 | 30 | 1020.3 |
| 20260906022634 | 25 | 111 | 3.2 | 4.8 | 0.00 | 0.00 | 0.00 | 30 | 1020.1 |
| 20260906022503 | 25 | 220 | 3.2 | 6.4 | 0.00 | 0.00 | 0.00 | 30 | 1020.3 |
| 20260906022301 | 25 | 237 | 1.6 | 6.4 | 0.00 | 0.00 | 0.00 | 29 | 1020.3 |
| 20260906022131 | 25 | 111 | 1.6 | 3.2 | 0.00 | 0.00 | 0.00 | 29 | 1020.3 |
| 20260906022013 | 25 | 111 | 1.6 | 3.2 | 0.00 | 0.00 | 0.00 | 29 | 1020.3 |
| 20260906021857 | 25 | 111 | 1.6 | 3.2 | 0.00 | 0.00 | 0.00 | 29 | 1020.3 |
| 20260906021659 | 25 | 111 | 1.6 | 3.2 | 0.00 | 0.00 | 0.00 | 29 | 1020.3 |
| 20260906021514 | 25 | 111 | 1.6 | 3.2 | 0.00 | 0.00 | 0.00 | 29 | 1020.1 |
| 20260906021457 | 25 | 111 | 1.6 | 3.2 | 0.00 | 0.00 | 0.00 | 29 | 1020.1 |
| 20260906021257 | 25 | 111 | 3.2 | 4.8 | 0.00 | 0.00 | 0.00 | 29 | 1020.1 |
| 20260906021127 | 25 | 111 | 3.2 | 4.8 | 0.00 | 0.00 | 0.00 | 29 | 1020.1 |
| 20260906020857 | 25 | 111 | 3.2 | 4.8 | 0.00 | 0.00 | 0.00 | 30 | 1020.1 |
| 20260906020657 | 25 | 116 | 3.2 | 4.8 | 0.00 | 0.00 | 0.00 | 29 | 1020.1 |
| 20260906020515 | 25 | 113 | 3.2 | 4.8 | 0.00 | 0.00 | 0.00 | 29 | 1020.0 |
| 20260906020455 | 25 | 110 | 3.2 | 4.8 | 0.00 | 0.00 | 0.00 | 29 | 1020.0 |
| 20260906020254 | 25 | 107 | 3.2 | 4.8 | 0.00 | 0.00 | 0.00 | 29 | 1020.0 |
| 20260906020052 | 25 | 128 | 3.2 | 4.8 | 0.00 | 0.00 | 0.00 | 29 | 1020.0 |
| 20260906020019 | 26 | 111 | 3.2 | 4.8 | 0.00 | 0.00 | 0.00 | 29 | 1020.0 |
| 20260906020013 | 25 | 123 | 3.2 | 4.8 | 0.00 | 0.00 | 0.00 | 29 | 1020.0 |
| 20260906015852 | 25 | 119 | 3.2 | 4.8 | 0.00 | 0.00 | 0.00 | 29 | 1020.0 |
| 20260906015652 | 26 | 125 | 3.2 | 4.8 | 0.00 | 0.00 | 0.00 | 29 | 1019.9 |
| 20260906015453 | 26 | 111 | 3.2 | 4.8 | 0.00 | 0.00 | 0.00 | 29 | 1020.0 |
| 20260906015252 | 26 | 107 | 3.2 | 4.8 | 0.00 | 0.00 | 0.00 | 29 | 1019.9 |
| 20260906015052 | 26 | 119 | 3.2 | 6.4 | 0.00 | 0.00 | 0.00 | 29 | 1019.9 |
| 20260906015013 | 26 | 126 | 3.2 | 6.4 | 0.00 | 0.00 | 0.00 | 29 | 1019.9 |
| 20260906014853 | 26 | 111 | 3.2 | 6.4 | 0.00 | 0.00 | 0.00 | 29 | 1019.8 |
| 20260906014653 | 26 | 119 | 3.2 | 6.4 | 0.00 | 0.00 | 0.00 | 29 | 1019.9 |
| 20260906014511 | 26 | 125 | 3.2 | 6.4 | 0.00 | 0.00 | 0.00 | 29 | 1019.8 |
| 20260906014450 | 26 | 107 | 3.2 | 6.4 | 0.00 | 0.00 | 0.00 | 29 | 1019.8 |
| 20260906014249 | 26 | 119 | 3.2 | 9.7 | 0.00 | 0.00 | 0.00 | 29 | 1019.9 |
| 20260906014050 | 26 | 105 | 4.8 | 9.7 | 0.00 | 0.00 | 0.00 | 29 | 1019.8 |
| 20260906014012 | 26 | 123 | 4.8 | 9.7 | 0.00 | 0.00 | 0.00 | 29 | 1019.8 |
| 20260906013850 | 26 | 141 | 4.8 | 9.7 | 0.00 | 0.00 | 0.00 | 29 | 1019.8 |
| 20260906013649 | 26 | 107 | 4.8 | 9.7 | 0.00 | 0.00 | 0.00 | 28 | 1019.8 |
| 20260906013511 | 26 | 101 | 4.8 | 9.7 | 0.00 | 0.00 | 0.00 | 28 | 1019.8 |
| 20260906013447 | 26 | 100 | 4.8 | 9.7 | 0.00 | 0.00 | 0.00 | 28 | 1019.8 |
| 20260906013249 | 26 | 100 | 3.2 | 9.7 | 0.00 | 0.00 | 0.00 | 28 | 1019.8 |
| 20260906013047 | 26 | 126 | 3.2 | 6.4 | 0.00 | 0.00 | 0.00 | 28 | 1019.6 |
| 20260906013011 | 26 | 104 | 3.2 | 6.4 | 0.00 | 0.00 | 0.00 | 28 | 1019.6 |
| 20260906012848 | 26 | 111 | 3.2 | 6.4 | 0.00 | 0.00 | 0.00 | 28 | 1019.6 |
| 20260906012647 | 26 | 119 | 3.2 | 6.4 | 0.00 | 0.00 | 0.00 | 28 | 1019.8 |
| 20260906012511 | 26 | 134 | 3.2 | 6.4 | 0.00 | 0.00 | 0.00 | 28 | 1019.6 |
| 20260906012445 | 26 | 147 | 3.2 | 6.4 | 0.00 | 0.00 | 0.00 | 28 | 1019.6 |
| 20260906012245 | 26 | 109 | 3.2 | 6.4 | 0.00 | 0.00 | 0.00 | 28 | 1019.6 |
| 20260906012047 | 26 | 123 | 3.2 | 6.4 | 0.00 | 0.00 | 0.00 | 28 | 1019.6 |
| 20260906012016 | 26 | 175 | 6.4 | 12.9 | 0.00 | 0.00 | 0.00 | 28 | 1019.6 |
| 20260906012011 | 26 | 123 | 3.2 | 8.0 | 0.00 | 0.00 | 0.00 | 28 | 1019.6 |
| 20260906011845 | 26 | 123 | 3.2 | 9.7 | 0.00 | 0.00 | 0.00 | 28 | 1019.6 |
| 20260906011645 | 26 | 134 | 3.2 | 9.7 | 0.00 | 0.00 | 0.00 | 28 | 1019.8 |
| 20260906011445 | 26 | 179 | 6.4 | 16.1 | 0.00 | 0.00 | 0.00 | 28 | 1019.6 |
| 20260906011246 | 26 | 157 | 6.4 | 16.1 | 0.00 | 0.00 | 0.00 | 27 | 1019.6 |
| 20260906011045 | 27 | 151 | 8.0 | 16.1 | 0.00 | 0.00 | 0.00 | 28 | 1019.6 |
| 20260906011009 | 27 | 165 | 8.0 | 16.1 | 0.00 | 0.00 | 0.00 | 28 | 1019.6 |
| 20260906010845 | 27 | 164 | 8.0 | 16.1 | 0.00 | 0.00 | 0.00 | 27 | 1019.6 |
| 20260906010645 | 27 | 150 | 8.0 | 16.1 | 0.00 | 0.00 | 0.00 | 27 | 1019.6 |
| 20260906010509 | 27 | 196 | 6.4 | 16.1 | 0.00 | 0.00 | 0.00 | 27 | 1019.6 |
| 20260906010445 | 27 | 190 | 6.4 | 12.9 | 0.00 | 0.00 | 0.00 | 27 | 1019.6 |
| 20260906010245 | 27 | 200 | 6.4 | 11.3 | 0.00 | 0.00 | 0.00 | 27 | 1019.6 |
| 20260906010046 | 27 | 199 | 6.4 | 12.9 | 0.00 | 0.00 | 0.00 | 27 | 1019.6 |
| 20260906010010 | 27 | 179 | 6.4 | 12.9 | 0.00 | 0.00 | 0.00 | 27 | 1019.6 |
| 20260906005847 | 27 | 196 | 8.0 | 12.9 | 0.00 | 0.00 | 0.00 | 27 | 1019.6 |
| 20260906005647 | 27 | 213 | 8.0 | 12.9 | 0.00 | 0.00 | 0.00 | 27 | 1019.8 |
| 20260906005510 | 27 | 213 | 9.7 | 12.9 | 0.00 | 0.00 | 0.00 | 27 | 1019.8 |
| 20260906005447 | 27 | 199 | 9.7 | 14.5 | 0.00 | 0.00 | 0.00 | 27 | 1019.6 |
| 20260906005246 | 27 | 195 | 9.7 | 17.7 | 0.00 | 0.00 | 0.00 | 27 | 1019.8 |
| 20260906005045 | 27 | 215 | 11.3 | 19.3 | 0.00 | 0.00 | 0.00 | 27 | 1019.8 |
| 20260906005014 | 27 | 213 | 12.9 | 22.5 | 0.00 | 0.00 | 0.00 | 26 | 1019.8 |
| 20260906005008 | 27 | 200 | 11.3 | 19.3 | 0.00 | 0.00 | 0.00 | 27 | 1019.8 |
| 20260906004845 | 27 | 225 | 11.3 | 22.5 | 0.00 | 0.00 | 0.00 | 26 | 1019.8 |
| 20260906004645 | 27 | 207 | 12.9 | 22.5 | 0.00 | 0.00 | 0.00 | 26 | 1019.8 |
| 20260906004447 | 27 | 209 | 12.9 | 22.5 | 0.00 | 0.00 | 0.00 | 26 | 1019.8 |
| 20260906004245 | 28 | 205 | 12.9 | 22.5 | 0.00 | 0.00 | 0.00 | 27 | 1019.8 |
| 20260906004045 | 28 | 202 | 12.9 | 22.5 | 0.00 | 0.00 | 0.00 | 26 | 1019.8 |
| 20260906004010 | 28 | 211 | 12.9 | 22.5 | 0.00 | 0.00 | 0.00 | 26 | 1019.8 |
| 20260906003846 | 28 | 187 | 12.9 | 20.9 | 0.00 | 0.00 | 0.00 | 26 | 1019.8 |
| 20260906003645 | 28 | 206 | 12.9 | 24.1 | 0.00 | 0.00 | 0.00 | 26 | 1019.8 |
| 20260906003508 | 28 | 196 | 12.9 | 24.1 | 0.00 | 0.00 | 0.00 | 26 | 1019.8 |
| 20260906003445 | 28 | 190 | 12.9 | 24.1 | 0.00 | 0.00 | 0.00 | 25 | 1019.8 |
| 20260906003245 | 28 | 189 | 12.9 | 24.1 | 0.00 | 0.00 | 0.00 | 25 | 1019.8 |
| 20260906003045 | 28 | 201 | 11.3 | 24.1 | 0.00 | 0.00 | 0.00 | 25 | 1019.8 |
| 20260906003005 | 28 | 200 | 11.3 | 24.1 | 0.00 | 0.00 | 0.00 | 25 | 1019.8 |
| 20260906002845 | 28 | 219 | 11.3 | 24.1 | 0.00 | 0.00 | 0.00 | 25 | 1019.8 |
| 20260906002645 | 28 | 206 | 9.7 | 22.5 | 0.00 | 0.00 | 0.00 | 26 | 1019.6 |
| 20260906002504 | 28 | 226 | 8.0 | 17.7 | 0.00 | 0.00 | 0.00 | 26 | 1019.6 |
| 20260906002444 | 28 | 213 | 8.0 | 17.7 | 0.00 | 0.00 | 0.00 | 26 | 1019.6 |
| 20260906002244 | 28 | 171 | 9.7 | 17.7 | 0.00 | 0.00 | 0.00 | 25 | 1019.8 |
| 20260906002045 | 28 | 198 | 11.3 | 17.7 | 0.00 | 0.00 | 0.00 | 25 | 1019.8 |
| 20260906002005 | 28 | 175 | 11.3 | 17.7 | 0.00 | 0.00 | 0.00 | 25 | 1019.8 |
| 20260906001844 | 28 | 174 | 11.3 | 17.7 | 0.00 | 0.00 | 0.00 | 25 | 1019.8 |
| 20260906001643 | 28 | 209 | 11.3 | 17.7 | 0.00 | 0.00 | 0.00 | 25 | 1019.8 |
| 20260906001506 | 28 | 153 | 11.3 | 17.7 | 0.00 | 0.00 | 0.00 | 25 | 1019.8 |
| 20260906001443 | 28 | 166 | 11.3 | 17.7 | 0.00 | 0.00 | 0.00 | 25 | 1019.8 |
| 20260906001243 | 29 | 214 | 9.7 | 17.7 | 0.00 | 0.00 | 0.00 | 25 | 1019.8 |
| 20260906001043 | 29 | 153 | 9.7 | 17.7 | 0.00 | 0.00 | 0.00 | 25 | 1019.8 |
| 20260906001003 | 29 | 171 | 9.7 | 17.7 | 0.00 | 0.00 | 0.00 | 25 | 1019.8 |
| 20260906000845 | 29 | 211 | 9.7 | 17.7 | 0.00 | 0.00 | 0.00 | 25 | 1019.8 |
| 20260906000644 | 29 | 153 | 8.0 | 17.7 | 0.00 | 0.00 | 0.00 | 25 | 1019.9 |
| 20260906000508 | 29 | 198 | 8.0 | 16.1 | 0.00 | 0.00 | 0.00 | 25 | 1019.6 |
| 20260906000503 | 29 | 170 | 8.0 | 16.1 | 0.00 | 0.00 | 0.00 | 25 | 1019.8 |
| 20260906000444 | 29 | 182 | 8.0 | 16.1 | 0.00 | 0.00 | 0.00 | 25 | 1019.8 |
| 20260906000245 | 29 | 191 | 8.0 | 16.1 | 0.00 | 0.00 | 0.00 | 25 | 1019.8 |
| 20260906000116 | 29 | 213 | 8.0 | 16.1 | 0.00 | 0.00 | 0.00 | 25 | 1019.6 |
| 20260905235844 | 29 | 164 | 9.7 | 17.7 | 0.00 | 0.00 | 0.00 | 25 | 1019.6 |
| 20260905235644 | 29 | 141 | 9.7 | 17.7 | 0.00 | 0.00 | 0.00 | 25 | 1019.8 |
| 20260905235503 | 29 | 194 | 9.7 | 17.7 | 0.00 | 0.00 | 0.00 | 25 | 1019.6 |
| 20260905235443 | 29 | 160 | 9.7 | 17.7 | 0.00 | 0.00 | 0.00 | 25 | 1019.6 |
| 20260905235243 | 29 | 212 | 9.7 | 17.7 | 0.00 | 0.00 | 0.00 | 26 | 1019.6 |
| 20260905235042 | 29 | 183 | 9.7 | 17.7 | 0.00 | 0.00 | 0.00 | 25 | 1019.6 |
| 20260905235004 | 29 | 180 | 9.7 | 19.3 | 0.00 | 0.00 | 0.00 | 25 | 1019.6 |
| 20260905234843 | 29 | 165 | 9.7 | 19.3 | 0.00 | 0.00 | 0.00 | 25 | 1019.6 |
| 20260905234644 | 29 | 150 | 9.7 | 20.9 | 0.00 | 0.00 | 0.00 | 25 | 1019.5 |
| 20260905234501 | 30 | 178 | 11.3 | 20.9 | 0.00 | 0.00 | 0.00 | 24 | 1019.6 |
| 20260905234444 | 30 | 191 | 11.3 | 20.9 | 0.00 | 0.00 | 0.00 | 24 | 1019.6 |
| 20260905234241 | 30 | 194 | 11.3 | 20.9 | 0.00 | 0.00 | 0.00 | 24 | 1019.6 |
| 20260905234041 | 30 | 188 | 11.3 | 20.9 | 0.00 | 0.00 | 0.00 | 24 | 1019.6 |
| 20260905234002 | 30 | 114 | 11.3 | 20.9 | 0.00 | 0.00 | 0.00 | 23 | 1019.6 |
| 20260905233841 | 30 | 174 | 11.3 | 20.9 | 0.00 | 0.00 | 0.00 | 24 | 1019.6 |
| 20260905233642 | 30 | 189 | 11.3 | 19.3 | 0.00 | 0.00 | 0.00 | 25 | 1019.5 |
| 20260905233501 | 30 | 159 | 11.3 | 22.5 | 0.00 | 0.00 | 0.00 | 24 | 1019.5 |
| 20260905233440 | 30 | 162 | 11.3 | 22.5 | 0.00 | 0.00 | 0.00 | 24 | 1019.6 |
| 20260905233236 | 30 | 189 | 12.9 | 22.5 | 0.00 | 0.00 | 0.00 | 24 | 1019.6 |
| 20260905233039 | 30 | 180 | 14.5 | 29.0 | 0.00 | 0.00 | 0.00 | 23 | 1019.5 |
| 20260905233008 | 30 | 191 | 14.5 | 29.0 | 0.00 | 0.00 | 0.00 | 22 | 1019.5 |
| 20260905233002 | 30 | 198 | 14.5 | 29.0 | 0.00 | 0.00 | 0.00 | 23 | 1019.5 |
| 20260905232839 | 30 | 201 | 16.1 | 29.0 | 0.00 | 0.00 | 0.00 | 23 | 1019.5 |
| 20260905232637 | 30 | 191 | 14.5 | 29.0 | 0.00 | 0.00 | 0.00 | 22 | 1019.5 |
| 20260905232437 | 30 | 193 | 14.5 | 29.0 | 0.00 | 0.00 | 0.00 | 23 | 1019.5 |
| 20260905232237 | 30 | 199 | 12.9 | 29.0 | 0.00 | 0.00 | 0.00 | 22 | 1019.5 |
| 20260905232039 | 30 | 182 | 12.9 | 24.1 | 0.00 | 0.00 | 0.00 | 22 | 1019.5 |
| 20260905232006 | 30 | 198 | 11.3 | 24.1 | 0.00 | 0.00 | 0.00 | 23 | 1019.6 |
| 20260905232000 | 30 | 184 | 12.9 | 24.1 | 0.00 | 0.00 | 0.00 | 22 | 1019.5 |
| 20260905231838 | 30 | 178 | 11.3 | 24.1 | 0.00 | 0.00 | 0.00 | 22 | 1019.5 |
| 20260905231638 | 30 | 161 | 11.3 | 24.1 | 0.00 | 0.00 | 0.00 | 23 | 1019.6 |
| 20260905231438 | 30 | 171 | 11.3 | 24.1 | 0.00 | 0.00 | 0.00 | 23 | 1019.6 |
| 20260905231238 | 30 | 142 | 12.9 | 24.1 | 0.00 | 0.00 | 0.00 | 23 | 1019.6 |
| 20260905231037 | 30 | 124 | 12.9 | 24.1 | 0.00 | 0.00 | 0.00 | 24 | 1019.5 |
| 20260905231000 | 30 | 104 | 12.9 | 24.1 | 0.00 | 0.00 | 0.00 | 24 | 1019.5 |
| 20260905230837 | 30 | 74 | 12.9 | 19.3 | 0.00 | 0.00 | 0.00 | 24 | 1019.5 |
| 20260905230639 | 30 | 96 | 11.3 | 19.3 | 0.00 | 0.00 | 0.00 | 22 | 1019.5 |
| 20260905230457 | 30 | 76 | 9.7 | 19.3 | 0.00 | 0.00 | 0.00 | 22 | 1019.5 |
| 20260905230437 | 30 | 68 | 9.7 | 19.3 | 0.00 | 0.00 | 0.00 | 22 | 1019.5 |
| 20260905230237 | 30 | 92 | 8.0 | 19.3 | 0.00 | 0.00 | 0.00 | 24 | 1019.5 |
| 20260905230038 | 30 | 79 | 6.4 | 16.1 | 0.00 | 0.00 | 0.00 | 23 | 1019.5 |
| 20260905225956 | 29 | 89 | 6.4 | 16.1 | 0.00 | 0.00 | 0.00 | 23 | 1019.5 |
| 20260905225837 | 30 | 74 | 6.4 | 12.9 | 0.00 | 0.00 | 0.00 | 23 | 1019.5 |
| 20260905225635 | 30 | 97 | 6.4 | 14.5 | 0.00 | 0.00 | 0.00 | 22 | 1019.5 |
| 20260905225455 | 30 | 122 | 6.4 | 14.5 | 0.00 | 0.00 | 0.00 | 23 | 1019.5 |
| 20260905225436 | 30 | 123 | 6.4 | 14.5 | 0.00 | 0.00 | 0.00 | 24 | 1019.5 |
| 20260905225235 | 30 | 103 | 6.4 | 14.5 | 0.00 | 0.00 | 0.00 | 22 | 1019.5 |
| 20260905225035 | 30 | 110 | 6.4 | 14.5 | 0.00 | 0.00 | 0.00 | 23 | 1019.5 |
| 20260905224956 | 30 | 97 | 6.4 | 14.5 | 0.00 | 0.00 | 0.00 | 23 | 1019.5 |
| 20260905224835 | 30 | 98 | 6.4 | 17.7 | 0.00 | 0.00 | 0.00 | 23 | 1019.5 |
| 20260905224634 | 30 | 115 | 8.0 | 17.7 | 0.00 | 0.00 | 0.00 | 24 | 1019.5 |
| 20260905224454 | 30 | 109 | 8.0 | 17.7 | 0.00 | 0.00 | 0.00 | 23 | 1019.5 |
| 20260905224435 | 30 | 99 | 8.0 | 17.7 | 0.00 | 0.00 | 0.00 | 23 | 1019.5 |
| 20260905224235 | 30 | 146 | 9.7 | 17.7 | 0.00 | 0.00 | 0.00 | 23 | 1019.5 |
| 20260905224035 | 30 | 93 | 9.7 | 17.7 | 0.00 | 0.00 | 0.00 | 24 | 1019.5 |
| 20260905223956 | 30 | 92 | 9.7 | 17.7 | 0.00 | 0.00 | 0.00 | 23 | 1019.5 |
| 20260905223836 | 29 | 174 | 9.7 | 19.3 | 0.00 | 0.00 | 0.00 | 24 | 1019.4 |
| 20260905223634 | 29 | 81 | 8.0 | 19.3 | 0.00 | 0.00 | 0.00 | 24 | 1019.5 |
| 20260905223455 | 29 | 57 | 8.0 | 19.3 | 0.00 | 0.00 | 0.00 | 24 | 1019.5 |
| 20260905223436 | 29 | 25 | 8.0 | 19.3 | 0.00 | 0.00 | 0.00 | 24 | 1019.5 |
| 20260905223234 | 29 | 69 | 6.4 | 19.3 | 0.00 | 0.00 | 0.00 | 24 | 1019.5 |
| 20260905223034 | 29 | 80 | 6.4 | 19.3 | 0.00 | 0.00 | 0.00 | 25 | 1019.6 |
| 20260905223000 | 29 | 15 | 4.8 | 12.9 | 0.00 | 0.00 | 0.00 | 24 | 1019.6 |
| 20260905222954 | 29 | 32 | 6.4 | 19.3 | 0.00 | 0.00 | 0.00 | 25 | 1019.6 |
| 20260905222835 | 29 | 0 | 4.8 | 19.3 | 0.00 | 0.00 | 0.00 | 24 | 1019.5 |
| 20260905222636 | 29 | 49 | 4.8 | 12.9 | 0.00 | 0.00 | 0.00 | 24 | 1019.6 |
| 20260905222435 | 29 | 10 | 6.4 | 12.9 | 0.00 | 0.00 | 0.00 | 24 | 1019.6 |
| 20260905222235 | 29 | 5 | 4.8 | 12.9 | 0.00 | 0.00 | 0.00 | 24 | 1019.6 |
| 20260905222035 | 29 | 348 | 4.8 | 11.3 | 0.00 | 0.00 | 0.00 | 24 | 1019.6 |
| 20260905222000 | 29 | 0 | 4.8 | 11.3 | 0.00 | 0.00 | 0.00 | 24 | 1019.6 |
| 20260905221954 | 29 | 348 | 4.8 | 11.3 | 0.00 | 0.00 | 0.00 | 24 | 1019.6 |
| 20260905221837 | 29 | 0 | 4.8 | 11.3 | 0.00 | 0.00 | 0.00 | 23 | 1019.6 |
| 20260905221635 | 29 | 9 | 4.8 | 11.3 | 0.00 | 0.00 | 0.00 | 24 | 1019.6 |
| 20260905221613 | 30 | 14 | 4.8 | 11.3 | 0.00 | 0.00 | 0.00 | 23 | 1019.8 |
| 20260905221436 | 29 | 11 | 4.8 | 11.3 | 0.00 | 0.00 | 0.00 | 23 | 1019.6 |